Observation data for Fritch on 05/27/2019      Previous  Date  Next       Current Mesonet Observations  Soil Data  Daily Summary Page  Observations in Plain Language
KFR1 270500Z 32005KT 15/14 A2991 RMK A01 T01520136  RH  090%=      5-min Rain = 0
KFR1 270501Z 32006KT 15/14 A2991 RMK A01 T01520136  RH  090%=      5-min Rain = 0
KFR1 270502Z 33007KT 15/14 A2991 RMK A01 T01520138  RH  091%=      5-min Rain = 0
KFR1 270503Z 33007KT 15/14 A299 RMK A01 T01520138  RH  092%=      5-min Rain = 0
KFR1 270504Z 34006KT 15/14 A299 RMK A01 T01520138  RH  092%=      5-min Rain = 0
KFR1 270505Z 35005KT 15/14 A299 RMK A01 T01520138  RH  092%=      5-min Rain = 0
KFR1 270506Z 33005KT 15/14 A2991 RMK A01 T01520139  RH  092%=      5-min Rain = 0
KFR1 270507Z 33006KT 15/14 A2992 RMK A01 T01520139  RH  092%=      5-min Rain = 0
KFR1 270508Z 32006KT 15/14 A2992 RMK A01 T01520140  RH  092%=      5-min Rain = 0
KFR1 270509Z 32006KT 15/14 A2992 RMK A01 T01520140  RH  092%=      5-min Rain = 0
KFR1 270510Z 34007KT 15/14 A2992 RMK A01 T01520140  RH  092%=      5-min Rain = 0
KFR1 270511Z 34006KT 15/14 A2991 RMK A01 T01520137  RH  091%=      5-min Rain = 0
KFR1 270512Z 00005KT 15/14 A2991 RMK A01 T01520136  RH  090%=      5-min Rain = 0
KFR1 270513Z 02004KT 15/14 A299 RMK A01 T01510135  RH  090%=      5-min Rain = 0
KFR1 270514Z 04004KT 15/14 A2989 RMK A01 T01510136  RH  090%=      5-min Rain = 0
KFR1 270515Z 04005KT 15/14 A2989 RMK A01 T01510136  RH  090%=      5-min Rain = 0
KFR1 270516Z 06003KT 15/14 A2989 RMK A01 T01510135  RH  090%=      5-min Rain = 0.01
KFR1 270517Z 10003KT 15/14 A2989 RMK A01 T01510135  RH  090%=      5-min Rain = 0
KFR1 270518Z 09004KT 15/14 A2988 RMK A01 T01510136  RH  091%=      5-min Rain = 0
KFR1 270519Z 09005KT 15/14 A2988 RMK A01 T01510135  RH  091%=      5-min Rain = 0
KFR1 270520Z 07005KT 15/14 A2987 RMK A01 T01500135  RH  091%=      5-min Rain = 0
KFR1 270521Z 34001KT 15/14 A2987 RMK A01 T01500135  RH  091%=      5-min Rain = 0
KFR1 270522Z 24004KT 15/14 A2988 RMK A01 T01500136  RH  091%=      5-min Rain = 0
KFR1 270523Z 19002KT 15/14 A2988 RMK A01 T01500137  RH  092%=      5-min Rain = 0.01
KFR1 270524Z 11003KT 15/14 A2987 RMK A01 T01500137  RH  092%=      5-min Rain = 0
KFR1 270525Z 08003KT 15/14 A2987 RMK A01 T01500136  RH  092%=      5-min Rain = 0
KFR1 270526Z 05001KT 15/14 A2987 RMK A01 T01500137  RH  092%=      5-min Rain = 0
KFR1 270527Z 12001KT 15/14 A2987 RMK A01 T01500138  RH  092%=      5-min Rain = 0
KFR1 270528Z 11002KT 15/14 A2987 RMK A01 T01500137  RH  092%=      5-min Rain = 0
KFR1 270529Z 12004KT 15/14 A2987 RMK A01 T01500136  RH  091%=      5-min Rain = 0
KFR1 270530Z 12003KT 15/14 A2987 RMK A01 T01500137  RH  092%=      5-min Rain = 0
KFR1 270531Z 10002KT 15/14 A2987 RMK A01 T01510136  RH  091%=      5-min Rain = 0
KFR1 270532Z 10002KT 15/14 A2988 RMK A01 T01510135  RH  090%=      5-min Rain = 0
KFR1 270533Z 11001KT 15/13 A2988 RMK A01 T01520134  RH  089%=      5-min Rain = 0
KFR1 270534Z 05001KT 15/13 A2987 RMK A01 T01540132  RH  087%=      5-min Rain = 0
KFR1 270535Z 10005KT 16/14 A2987 RMK A01 T01560135  RH  087%=      5-min Rain = 0
KFR1 270536Z 10007KT 16/14 A2987 RMK A01 T01550138  RH  089%=      5-min Rain = 0
KFR1 270537Z 11010KT 15/14 A2986 RMK A01 T01540138  RH  090%=      5-min Rain = 0
KFR1 270538Z 10011KT 15/14 A2986 RMK A01 T01540139  RH  091%=      5-min Rain = 0.01
KFR1 270539Z 12009KT 15/14 A2986 RMK A01 T01530139  RH  092%=      5-min Rain = 0
KFR1 270540Z 20007G14KT 15/14 A2988 RMK A01 T01520139  RH  092%=      5-min Rain = 0
KFR1 270541Z 24019G24KT 15/14 A2991 RMK A01 T01520139  RH  092%=      5-min Rain = 0
KFR1 270542Z 26022G30KT 15/14 A2991 RMK A01 T01520139  RH  092%=      5-min Rain = 0.01
KFR1 270543Z 26012G17KT 15/14 A299 RMK A01 T01530138  RH  091%=      5-min Rain = 0
KFR1 270544Z 24008KT 15/14 A299 RMK A01 T01540138  RH  090%=      5-min Rain = 0.01
KFR1 270545Z 23011KT 15/14 A299 RMK A01 T01540140  RH  091%=      5-min Rain = 0.01
KFR1 270546Z 25008KT 16/14 A299 RMK A01 T01570143  RH  091%=      5-min Rain = 0.02
KFR1 270547Z 24008KT 16/14 A299 RMK A01 T01580141  RH  090%=      5-min Rain = 0.01
KFR1 270548Z 23007KT 16/14 A2989 RMK A01 T01560139  RH  090%=      5-min Rain = 0.01
KFR1 270549Z 20006KT 16/14 A2989 RMK A01 T01550139  RH  090%=      5-min Rain = 0.01
KFR1 270550Z 20007KT 15/14 A2989 RMK A01 T01540140  RH  091%=      5-min Rain = 0.01
KFR1 270551Z 20007KT 15/14 A2989 RMK A01 T01540140  RH  091%=      5-min Rain = 0.02
KFR1 270552Z 19006KT 15/14 A2988 RMK A01 T01530140  RH  092%=      5-min Rain = 0.02
KFR1 270553Z 17006KT 15/14 A2988 RMK A01 T01520140  RH  092%=      5-min Rain = 0.02
KFR1 270554Z 17008KT 15/14 A2988 RMK A01 T01520141  RH  093%=      5-min Rain = 0.02
KFR1 270555Z 16007KT 15/14 A2988 RMK A01 T01510141  RH  094%=      5-min Rain = 0.02
KFR1 270556Z 16006KT 15/14 A2988 RMK A01 T01500141  RH  094%=      5-min Rain = 0.01
KFR1 270557Z 16005KT 15/14 A2988 RMK A01 T01500141  RH  095%=      5-min Rain = 0
KFR1 270558Z 17005KT 15/14 A2988 RMK A01 T01490141  RH  095%=      5-min Rain = 0
KFR1 270559Z 17005KT 15/14 A2988 RMK A01 T01490141  RH  095%=      5-min Rain = 0
KFR1 270600Z 17005KT 15/14 A2988 RMK A01 T01490142  RH  095%=      5-min Rain = 0
KFR1 270601Z 19005KT 15/14 A2989 RMK A01 T01500142  RH  095%=      5-min Rain = 0
KFR1 270602Z 19005KT 15/14 A2989 RMK A01 T01500143  RH  095%=      5-min Rain = 0
KFR1 270603Z 19006KT 15/14 A2989 RMK A01 T01510144  RH  095%=      5-min Rain = 0
KFR1 270604Z 18005KT 15/14 A2989 RMK A01 T01520144  RH  095%=      5-min Rain = 0
KFR1 270605Z 18007KT 15/15 A2989 RMK A01 T01530145  RH  095%=      5-min Rain = 0
KFR1 270606Z 18006KT 15/15 A2989 RMK A01 T01530146  RH  095%=      5-min Rain = 0
KFR1 270607Z 18005KT 15/15 A2989 RMK A01 T01540147  RH  095%=      5-min Rain = 0
KFR1 270608Z 18004KT 16/15 A2989 RMK A01 T01550148  RH  095%=      5-min Rain = 0
KFR1 270609Z 20006KT 16/15 A2989 RMK A01 T01560148  RH  095%=      5-min Rain = 0
KFR1 270610Z 21007G13KT 16/15 A2988 RMK A01 T01570150  RH  095%=      5-min Rain = 0
KFR1 270611Z 19013G20KT 17/16 A2988 RMK A01 T01670162  RH  097%=      5-min Rain = 0
KFR1 270612Z 19006KT 17/16 A2988 RMK A01 T01690160  RH  094%=      5-min Rain = 0
KFR1 270613Z 22003KT 17/16 A2988 RMK A01 T01710158  RH  092%=      5-min Rain = 0
KFR1 270614Z 28001KT 17/16 A2987 RMK A01 T01700155  RH  091%=      5-min Rain = 0
KFR1 270615Z 26000KT 17/15 A2987 RMK A01 T01660149  RH  090%=      5-min Rain = 0
KFR1 270616Z 03002KT 16/15 A2987 RMK A01 T01640150  RH  091%=      5-min Rain = 0
KFR1 270617Z 03003KT 16/15 A2987 RMK A01 T01630149  RH  092%=      5-min Rain = 0
KFR1 270618Z 03002KT 16/15 A2987 RMK A01 T01610148  RH  092%=      5-min Rain = 0
KFR1 270619Z 01004KT 16/15 A2987 RMK A01 T01600147  RH  092%=      5-min Rain = 0
KFR1 270620Z 03002KT 16/15 A2987 RMK A01 T01580147  RH  093%=      5-min Rain = 0.01
KFR1 270621Z 09002KT 16/15 A2987 RMK A01 T01580148  RH  094%=      5-min Rain = 0
KFR1 270622Z 20003KT 16/15 A2988 RMK A01 T01590151  RH  095%=      5-min Rain = 0
KFR1 270623Z 27009G14KT 16/15 A2991 RMK A01 T01610154  RH  095%=      5-min Rain = 0
KFR1 270624Z 28016G24KT 16/15 A2993 RMK A01 T01610153  RH  095%=      5-min Rain = 0
KFR1 270625Z 30014G22KT 16/15 A2993 RMK A01 T01600151  RH  094%=      5-min Rain = 0
KFR1 270626Z 30007G13KT 16/15 A2993 RMK A01 T01580149  RH  094%=      5-min Rain = 0.02
KFR1 270627Z 31005KT 16/15 A2992 RMK A01 T01560147  RH  094%=      5-min Rain = 0.02
KFR1 270628Z 30007KT 16/15 A2992 RMK A01 T01550146  RH  094%=      5-min Rain = 0.02
KFR1 270629Z 29004KT 16/15 A2992 RMK A01 T01550146  RH  095%=      5-min Rain = 0.01
KFR1 270630Z 22003KT 16/15 A2993 RMK A01 T01550147  RH  095%=      5-min Rain = 0.01
KFR1 270631Z 20005KT 15/15 A2993 RMK A01 T01540147  RH  095%=      5-min Rain = 0.01
KFR1 270632Z 21004KT 15/15 A2992 RMK A01 T01540147  RH  095%=      5-min Rain = 0.01
KFR1 270633Z 20004KT 16/15 A2992 RMK A01 T01550147  RH  095%=      5-min Rain = 0.01
KFR1 270634Z 22003KT 16/15 A2992 RMK A01 T01550148  RH  096%=      5-min Rain = 0.02
KFR1 270635Z 25002KT 16/15 A2991 RMK A01 T01550148  RH  096%=      5-min Rain = 0.02
KFR1 270636Z 24003KT 16/15 A299 RMK A01 T01550148  RH  096%=      5-min Rain = 0.01
KFR1 270637Z 20003KT 16/15 A299 RMK A01 T01550149  RH  096%=      5-min Rain = 0.02
KFR1 270638Z 18005KT 16/15 A299 RMK A01 T01560150  RH  096%=      5-min Rain = 0.01
KFR1 270639Z 18005KT 16/15 A2989 RMK A01 T01560150  RH  096%=      5-min Rain = 0.02
KFR1 270640Z 17005KT 16/15 A2989 RMK A01 T01560150  RH  096%=      5-min Rain = 0.01
KFR1 270641Z 16007KT 16/15 A2989 RMK A01 T01560150  RH  096%=      5-min Rain = 0.01
KFR1 270642Z 16007KT 16/15 A2988 RMK A01 T01570150  RH  096%=      5-min Rain = 0.02
KFR1 270643Z 16006KT 16/15 A2988 RMK A01 T01560150  RH  096%=      5-min Rain = 0.01
KFR1 270644Z 17008KT 16/15 A2988 RMK A01 T01570151  RH  096%=      5-min Rain = 0
KFR1 270645Z 15006KT 16/15 A2988 RMK A01 T01570151  RH  097%=      5-min Rain = 0
KFR1 270646Z 17006KT 16/15 A2988 RMK A01 T01570151  RH  096%=      5-min Rain = 0
KFR1 270647Z 15005KT 16/15 A2987 RMK A01 T01570151  RH  096%=      5-min Rain = 0
KFR1 270648Z 16005KT 16/15 A2987 RMK A01 T01570151  RH  096%=      5-min Rain = 0
KFR1 270649Z 17004KT 16/15 A2987 RMK A01 T01570152  RH  096%=      5-min Rain = 0
KFR1 270650Z 22007KT 16/15 A2988 RMK A01 T01570152  RH  097%=      5-min Rain = 0
KFR1 270651Z 22011KT 16/15 A2989 RMK A01 T01570152  RH  097%=      5-min Rain = 0
KFR1 270652Z 18007KT 16/15 A2988 RMK A01 T01580152  RH  097%=      5-min Rain = 0
KFR1 270653Z 16007KT 16/15 A2987 RMK A01 T01580152  RH  097%=      5-min Rain = 0
KFR1 270654Z 17006KT 16/15 A2987 RMK A01 T01580153  RH  097%=      5-min Rain = 0
KFR1 270655Z 19007KT 16/15 A2988 RMK A01 T01580152  RH  097%=      5-min Rain = 0
KFR1 270656Z 20009KT 16/15 A2987 RMK A01 T01580152  RH  097%=      5-min Rain = 0
KFR1 270657Z 20009KT 16/15 A2987 RMK A01 T01580152  RH  096%=      5-min Rain = 0
KFR1 270658Z 20011KT 16/15 A2987 RMK A01 T01590153  RH  096%=      5-min Rain = 0
KFR1 270659Z 19010KT 16/15 A2987 RMK A01 T01600153  RH  096%=      5-min Rain = 0
KFR1 270700Z 18009KT 16/15 A2987 RMK A01 T01610153  RH  095%=      5-min Rain = 0
KFR1 270701Z 18010KT 16/15 A2987 RMK A01 T01610153  RH  095%=      5-min Rain = 0
KFR1 270702Z 18009KT 16/15 A2987 RMK A01 T01600153  RH  095%=      5-min Rain = 0
KFR1 270703Z 18009KT 16/15 A2987 RMK A01 T01600152  RH  095%=      5-min Rain = 0
KFR1 270704Z 17009KT 16/15 A2987 RMK A01 T01600152  RH  095%=      5-min Rain = 0
KFR1 270705Z 18010KT 16/15 A2987 RMK A01 T01600152  RH  095%=      5-min Rain = 0
KFR1 270706Z 18010KT 16/15 A2987 RMK A01 T01600152  RH  095%=      5-min Rain = 0
KFR1 270707Z 18008KT 16/15 A2986 RMK A01 T01600152  RH  095%=      5-min Rain = 0
KFR1 270708Z 19008KT 16/15 A2986 RMK A01 T01600152  RH  095%=      5-min Rain = 0
KFR1 270709Z 19009KT 16/15 A2986 RMK A01 T01600151  RH  094%=      5-min Rain = 0
KFR1 270710Z 19009KT 16/15 A2986 RMK A01 T01620153  RH  094%=      5-min Rain = 0
KFR1 270711Z 19009KT 16/15 A2986 RMK A01 T01640153  RH  094%=      5-min Rain = 0
KFR1 270712Z 20009KT 17/15 A2986 RMK A01 T01650154  RH  093%=      5-min Rain = 0
KFR1 270713Z 19010KT 17/16 A2986 RMK A01 T01660155  RH  093%=      5-min Rain = 0
KFR1 270714Z 19009KT 17/16 A2986 RMK A01 T01680155  RH  092%=      5-min Rain = 0
KFR1 270715Z 19010KT 17/16 A2985 RMK A01 T01680155  RH  092%=      5-min Rain = 0
KFR1 270716Z 20010KT 17/16 A2985 RMK A01 T01690155  RH  092%=      5-min Rain = 0
KFR1 270717Z 20010KT 17/16 A2985 RMK A01 T01700156  RH  092%=      5-min Rain = 0
KFR1 270718Z 20010KT 17/16 A2986 RMK A01 T01710156  RH  091%=      5-min Rain = 0
KFR1 270719Z 19010KT 17/16 A2986 RMK A01 T01710156  RH  091%=      5-min Rain = 0
KFR1 270720Z 19010KT 17/16 A2985 RMK A01 T01720156  RH  091%=      5-min Rain = 0
KFR1 270721Z 20010KT 17/16 A2985 RMK A01 T01720156  RH  090%=      5-min Rain = 0
KFR1 270722Z 20009KT 17/16 A2985 RMK A01 T01720156  RH  091%=      5-min Rain = 0
KFR1 270723Z 20010KT 17/16 A2985 RMK A01 T01710156  RH  091%=      5-min Rain = 0
KFR1 270724Z 19008KT 17/16 A2985 RMK A01 T01700156  RH  091%=      5-min Rain = 0
KFR1 270725Z 19008KT 17/16 A2985 RMK A01 T01700155  RH  091%=      5-min Rain = 0
KFR1 270726Z 19008KT 17/16 A2985 RMK A01 T01690155  RH  091%=      5-min Rain = 0
KFR1 270727Z 19008KT 17/16 A2985 RMK A01 T01690155  RH  091%=      5-min Rain = 0
KFR1 270728Z 19008KT 17/16 A2985 RMK A01 T01690155  RH  092%=      5-min Rain = 0
KFR1 270729Z 19008KT 17/16 A2985 RMK A01 T01690155  RH  092%=      5-min Rain = 0
KFR1 270730Z 19007KT 17/16 A2985 RMK A01 T01690155  RH  092%=      5-min Rain = 0
KFR1 270731Z 19008KT 17/16 A2985 RMK A01 T01680155  RH  092%=      5-min Rain = 0
KFR1 270732Z 19008KT 17/16 A2985 RMK A01 T01690156  RH  092%=      5-min Rain = 0
KFR1 270733Z 19008KT 17/16 A2985 RMK A01 T01690157  RH  092%=      5-min Rain = 0
KFR1 270734Z 19009KT 17/16 A2985 RMK A01 T01690157  RH  092%=      5-min Rain = 0
KFR1 270735Z 19008KT 17/16 A2985 RMK A01 T01700157  RH  092%=      5-min Rain = 0
KFR1 270736Z 19009KT 17/16 A2985 RMK A01 T01700158  RH  092%=      5-min Rain = 0
KFR1 270737Z 19008KT 17/16 A2985 RMK A01 T01710159  RH  092%=      5-min Rain = 0
KFR1 270738Z 19009KT 17/16 A2985 RMK A01 T01720160  RH  092%=      5-min Rain = 0
KFR1 270739Z 19009KT 17/16 A2985 RMK A01 T01730161  RH  092%=      5-min Rain = 0
KFR1 270740Z 19008KT 17/16 A2985 RMK A01 T01740161  RH  092%=      5-min Rain = 0
KFR1 270741Z 19009KT 17/16 A2985 RMK A01 T01740162  RH  092%=      5-min Rain = 0
KFR1 270742Z 19009KT 18/16 A2985 RMK A01 T01750163  RH  093%=      5-min Rain = 0
KFR1 270743Z 19009KT 18/17 A2985 RMK A01 T01760165  RH  093%=      5-min Rain = 0
KFR1 270744Z 19010KT 18/17 A2985 RMK A01 T01780166  RH  093%=      5-min Rain = 0
KFR1 270745Z 20009KT 18/17 A2985 RMK A01 T01800168  RH  093%=      5-min Rain = 0
KFR1 270746Z 20008KT 18/17 A2985 RMK A01 T01810169  RH  093%=      5-min Rain = 0
KFR1 270747Z 20009KT 18/17 A2985 RMK A01 T01820170  RH  092%=      5-min Rain = 0
KFR1 270748Z 20009KT 18/17 A2985 RMK A01 T01830170  RH  092%=      5-min Rain = 0
KFR1 270749Z 20007KT 18/17 A2984 RMK A01 T01840171  RH  092%=      5-min Rain = 0
KFR1 270750Z 21007KT 19/17 A2985 RMK A01 T01850171  RH  092%=      5-min Rain = 0
KFR1 270751Z 21008KT 19/17 A2985 RMK A01 T01850171  RH  091%=      5-min Rain = 0
KFR1 270752Z 21007KT 19/17 A2985 RMK A01 T01850171  RH  091%=      5-min Rain = 0
KFR1 270753Z 20005KT 19/17 A2985 RMK A01 T01860171  RH  091%=      5-min Rain = 0
KFR1 270754Z 19007KT 19/17 A2985 RMK A01 T01850171  RH  091%=      5-min Rain = 0
KFR1 270755Z 19007KT 18/17 A2985 RMK A01 T01840171  RH  092%=      5-min Rain = 0
KFR1 270756Z 19007KT 19/17 A2985 RMK A01 T01850172  RH  092%=      5-min Rain = 0
KFR1 270757Z 19008KT 19/17 A2984 RMK A01 T01850172  RH  092%=      5-min Rain = 0
KFR1 270758Z 19009KT 19/17 A2984 RMK A01 T01850172  RH  092%=      5-min Rain = 0
KFR1 270759Z 18008KT 19/17 A2984 RMK A01 T01860173  RH  092%=      5-min Rain = 0
KFR1 270800Z 18010KT 19/17 A2984 RMK A01 T01870174  RH  092%=      5-min Rain = 0
KFR1 270801Z 18008KT 19/18 A2984 RMK A01 T01890175  RH  092%=      5-min Rain = 0
KFR1 270802Z 18009KT 19/18 A2984 RMK A01 T01890175  RH  091%=      5-min Rain = 0
KFR1 270803Z 19009KT 19/18 A2984 RMK A01 T01900175  RH  091%=      5-min Rain = 0
KFR1 270804Z 19008KT 19/18 A2984 RMK A01 T01900175  RH  091%=      5-min Rain = 0
KFR1 270805Z 19008KT 19/18 A2984 RMK A01 T01910176  RH  091%=      5-min Rain = 0
KFR1 270806Z 18010KT 19/18 A2984 RMK A01 T01910176  RH  091%=      5-min Rain = 0
KFR1 270807Z 19010KT 19/18 A2984 RMK A01 T01920177  RH  091%=      5-min Rain = 0
KFR1 270808Z 19010KT 19/18 A2984 RMK A01 T01930177  RH  091%=      5-min Rain = 0
KFR1 270809Z 19010KT 19/18 A2984 RMK A01 T01940178  RH  090%=      5-min Rain = 0
KFR1 270810Z 19013KT 20/18 A2984 RMK A01 T01950178  RH  090%=      5-min Rain = 0
KFR1 270811Z 19010KT 20/18 A2984 RMK A01 T01960178  RH  089%=      5-min Rain = 0
KFR1 270812Z 18010KT 20/18 A2984 RMK A01 T01960178  RH  089%=      5-min Rain = 0
KFR1 270813Z 19010KT 20/18 A2984 RMK A01 T01960178  RH  089%=      5-min Rain = 0
KFR1 270814Z 18010KT 20/18 A2984 RMK A01 T01950177  RH  090%=      5-min Rain = 0
KFR1 270815Z 18011KT 19/18 A2984 RMK A01 T01940177  RH  090%=      5-min Rain = 0
KFR1 270816Z 18012KT 19/18 A2983 RMK A01 T01930177  RH  090%=      5-min Rain = 0
KFR1 270817Z 17012KT 19/18 A2983 RMK A01 T01930177  RH  090%=      5-min Rain = 0
KFR1 270818Z 17011KT 19/18 A2983 RMK A01 T01930177  RH  090%=      5-min Rain = 0
KFR1 270819Z 17010KT 19/18 A2983 RMK A01 T01920176  RH  091%=      5-min Rain = 0
KFR1 270820Z 17011KT 19/18 A2983 RMK A01 T01910176  RH  091%=      5-min Rain = 0
KFR1 270821Z 17012KT 19/18 A2983 RMK A01 T01910176  RH  091%=      5-min Rain = 0
KFR1 270822Z 17012KT 19/18 A2983 RMK A01 T01910176  RH  091%=      5-min Rain = 0
KFR1 270823Z 17010KT 19/18 A2983 RMK A01 T01910176  RH  091%=      5-min Rain = 0
KFR1 270824Z 17010KT 19/18 A2983 RMK A01 T01910176  RH  091%=      5-min Rain = 0
KFR1 270825Z 17012KT 19/18 A2983 RMK A01 T01900176  RH  091%=      5-min Rain = 0
KFR1 270826Z 17010KT 19/18 A2983 RMK A01 T01900176  RH  091%=      5-min Rain = 0
KFR1 270827Z 17012KT 19/18 A2983 RMK A01 T01900176  RH  091%=      5-min Rain = 0
KFR1 270828Z 17010KT 19/18 A2983 RMK A01 T01900176  RH  091%=      5-min Rain = 0
KFR1 270829Z 17010KT 19/18 A2983 RMK A01 T01900175  RH  091%=      5-min Rain = 0
KFR1 270830Z 18009KT 19/18 A2983 RMK A01 T01900176  RH  091%=      5-min Rain = 0
KFR1 270831Z 18011KT 19/18 A2983 RMK A01 T01890175  RH  092%=      5-min Rain = 0
KFR1 270832Z 18011KT 19/18 A2983 RMK A01 T01890175  RH  092%=      5-min Rain = 0
KFR1 270833Z 18011KT 19/18 A2983 RMK A01 T01890175  RH  092%=      5-min Rain = 0
KFR1 270834Z 18009KT 19/18 A2983 RMK A01 T01890175  RH  092%=      5-min Rain = 0
KFR1 270835Z 18010KT 19/18 A2983 RMK A01 T01880175  RH  092%=      5-min Rain = 0
KFR1 270836Z 17009KT 19/18 A2983 RMK A01 T01880175  RH  092%=      5-min Rain = 0
KFR1 270837Z 17011KT 19/18 A2983 RMK A01 T01870175  RH  092%=      5-min Rain = 0
KFR1 270838Z 18010KT 19/17 A2983 RMK A01 T01870174  RH  092%=      5-min Rain = 0
KFR1 270839Z 17011KT 19/17 A2983 RMK A01 T01870174  RH  092%=      5-min Rain = 0
KFR1 270840Z 17011KT 19/17 A2983 RMK A01 T01860174  RH  093%=      5-min Rain = 0
KFR1 270841Z 17012KT 19/17 A2983 RMK A01 T01860174  RH  093%=      5-min Rain = 0
KFR1 270842Z 17011KT 19/17 A2983 RMK A01 T01860174  RH  093%=      5-min Rain = 0
KFR1 270843Z 17010KT 19/17 A2983 RMK A01 T01860174  RH  093%=      5-min Rain = 0
KFR1 270844Z 17012KT 19/17 A2983 RMK A01 T01860174  RH  093%=      5-min Rain = 0
KFR1 270845Z 18010KT 19/17 A2983 RMK A01 T01860174  RH  093%=      5-min Rain = 0
KFR1 270846Z 17011KT 19/17 A2983 RMK A01 T01860174  RH  093%=      5-min Rain = 0
KFR1 270847Z 18011KT 19/17 A2983 RMK A01 T01860174  RH  093%=      5-min Rain = 0
KFR1 270848Z 18011KT 19/17 A2983 RMK A01 T01860174  RH  093%=      5-min Rain = 0
KFR1 270849Z 17012KT 19/17 A2983 RMK A01 T01860174  RH  093%=      5-min Rain = 0
KFR1 270850Z 18010KT 19/17 A2983 RMK A01 T01870174  RH  093%=      5-min Rain = 0
KFR1 270851Z 17012KT 19/17 A2983 RMK A01 T01860174  RH  092%=      5-min Rain = 0
KFR1 270852Z 17011KT 19/17 A2983 RMK A01 T01860174  RH  093%=      5-min Rain = 0
KFR1 270853Z 17012KT 19/17 A2983 RMK A01 T01860174  RH  092%=      5-min Rain = 0
KFR1 270854Z 17012KT 19/17 A2983 RMK A01 T01860174  RH  092%=      5-min Rain = 0
KFR1 270855Z 18012KT 19/17 A2983 RMK A01 T01860174  RH  093%=      5-min Rain = 0
KFR1 270856Z 17012KT 19/17 A2983 RMK A01 T01860174  RH  093%=      5-min Rain = 0
KFR1 270857Z 17013KT 19/17 A2983 RMK A01 T01860174  RH  092%=      5-min Rain = 0
KFR1 270858Z 18012KT 19/17 A2983 RMK A01 T01860174  RH  092%=      5-min Rain = 0
KFR1 270859Z 18011KT 19/17 A2983 RMK A01 T01860174  RH  092%=      5-min Rain = 0
KFR1 270900Z 17011KT 19/17 A2983 RMK A01 T01870174  RH  093%=      5-min Rain = 0
KFR1 270901Z 17011KT 19/17 A2983 RMK A01 T01860174  RH  093%=      5-min Rain = 0
KFR1 270902Z 18010KT 19/17 A2983 RMK A01 T01860174  RH  093%=      5-min Rain = 0
KFR1 270903Z 18012KT 19/17 A2983 RMK A01 T01860174  RH  093%=      5-min Rain = 0
KFR1 270904Z 17011KT 19/17 A2983 RMK A01 T01860174  RH  093%=      5-min Rain = 0.01
KFR1 270905Z 18011KT 19/17 A2983 RMK A01 T01860174  RH  093%=      5-min Rain = 0
KFR1 270906Z 18009KT 19/17 A2983 RMK A01 T01860174  RH  093%=      5-min Rain = 0
KFR1 270907Z 18012KT 19/17 A2983 RMK A01 T01860174  RH  093%=      5-min Rain = 0
KFR1 270908Z 19009KT 19/17 A2983 RMK A01 T01860174  RH  092%=      5-min Rain = 0
KFR1 270909Z 18012KT 19/17 A2983 RMK A01 T01860174  RH  093%=      5-min Rain = 0
KFR1 270910Z 18010KT 19/17 A2983 RMK A01 T01860174  RH  093%=      5-min Rain = 0
KFR1 270911Z 18010KT 19/17 A2983 RMK A01 T01860174  RH  093%=      5-min Rain = 0
KFR1 270912Z 19009KT 19/17 A2983 RMK A01 T01860173  RH  092%=      5-min Rain = 0
KFR1 270913Z 19010KT 19/17 A2983 RMK A01 T01850173  RH  093%=      5-min Rain = 0
KFR1 270914Z 19010KT 19/17 A2983 RMK A01 T01850173  RH  093%=      5-min Rain = 0
KFR1 270915Z 19010KT 19/17 A2983 RMK A01 T01850173  RH  093%=      5-min Rain = 0
KFR1 270916Z 19010KT 19/17 A2983 RMK A01 T01850173  RH  093%=      5-min Rain = 0
KFR1 270917Z 19011KT 19/17 A2983 RMK A01 T01850173  RH  093%=      5-min Rain = 0
KFR1 270918Z 19010KT 19/17 A2983 RMK A01 T01850173  RH  093%=      5-min Rain = 0
KFR1 270919Z 19010KT 19/17 A2983 RMK A01 T01850173  RH  093%=      5-min Rain = 0
KFR1 270920Z 19010KT 19/17 A2983 RMK A01 T01850173  RH  093%=      5-min Rain = 0
KFR1 270921Z 19010KT 18/17 A2983 RMK A01 T01840173  RH  093%=      5-min Rain = 0
KFR1 270922Z 19010KT 18/17 A2983 RMK A01 T01840172  RH  093%=      5-min Rain = 0
KFR1 270923Z 19011KT 18/17 A2983 RMK A01 T01840172  RH  093%=      5-min Rain = 0
KFR1 270924Z 20012KT 18/17 A2983 RMK A01 T01840173  RH  093%=      5-min Rain = 0
KFR1 270925Z 19010KT 18/17 A2983 RMK A01 T01840172  RH  093%=      5-min Rain = 0
KFR1 270926Z 19010KT 18/17 A2983 RMK A01 T01840172  RH  093%=      5-min Rain = 0
KFR1 270927Z 19011KT 18/17 A2983 RMK A01 T01840172  RH  093%=      5-min Rain = 0
KFR1 270928Z 19011KT 18/17 A2983 RMK A01 T01840172  RH  093%=      5-min Rain = 0
KFR1 270929Z 20011KT 18/17 A2983 RMK A01 T01840172  RH  093%=      5-min Rain = 0
KFR1 270930Z 20011KT 18/17 A2983 RMK A01 T01840172  RH  093%=      5-min Rain = 0
KFR1 270931Z 19011KT 18/17 A2983 RMK A01 T01840172  RH  093%=      5-min Rain = 0
KFR1 270932Z 20011KT 18/17 A2983 RMK A01 T01840172  RH  093%=      5-min Rain = 0
KFR1 270933Z 20009KT 18/17 A2983 RMK A01 T01840172  RH  093%=      5-min Rain = 0
KFR1 270934Z 20010KT 18/17 A2983 RMK A01 T01840172  RH  093%=      5-min Rain = 0
KFR1 270935Z 20010KT 18/17 A2983 RMK A01 T01840172  RH  093%=      5-min Rain = 0
KFR1 270936Z 20011KT 18/17 A2983 RMK A01 T01840172  RH  093%=      5-min Rain = 0
KFR1 270937Z 20010KT 18/17 A2983 RMK A01 T01840172  RH  093%=      5-min Rain = 0
KFR1 270938Z 20011KT 18/17 A2983 RMK A01 T01840172  RH  093%=      5-min Rain = 0
KFR1 270939Z 20011KT 18/17 A2983 RMK A01 T01840172  RH  093%=      5-min Rain = 0
KFR1 270940Z 20011KT 18/17 A2983 RMK A01 T01840172  RH  093%=      5-min Rain = 0
KFR1 270941Z 20009KT 18/17 A2983 RMK A01 T01840172  RH  093%=      5-min Rain = 0
KFR1 270942Z 20010KT 18/17 A2983 RMK A01 T01840172  RH  093%=      5-min Rain = 0
KFR1 270943Z 20009KT 18/17 A2983 RMK A01 T01840172  RH  093%=      5-min Rain = 0
KFR1 270944Z 20009KT 18/17 A2983 RMK A01 T01840172  RH  093%=      5-min Rain = 0
KFR1 270945Z 20008KT 18/17 A2983 RMK A01 T01830171  RH  093%=      5-min Rain = 0
KFR1 270946Z 20010KT 18/17 A2983 RMK A01 T01830172  RH  093%=      5-min Rain = 0
KFR1 270947Z 20009KT 18/17 A2983 RMK A01 T01830172  RH  093%=      5-min Rain = 0
KFR1 270948Z 20009KT 18/17 A2983 RMK A01 T01830172  RH  093%=      5-min Rain = 0
KFR1 270949Z 20010KT 18/17 A2983 RMK A01 T01830172  RH  093%=      5-min Rain = 0
KFR1 270950Z 20010KT 18/17 A2983 RMK A01 T01830172  RH  093%=      5-min Rain = 0
KFR1 270951Z 20009KT 18/17 A2983 RMK A01 T01830172  RH  093%=      5-min Rain = 0
KFR1 270952Z 20011KT 18/17 A2983 RMK A01 T01830172  RH  093%=      5-min Rain = 0
KFR1 270953Z 20010KT 18/17 A2983 RMK A01 T01840172  RH  093%=      5-min Rain = 0
KFR1 270954Z 20010KT 18/17 A2983 RMK A01 T01840172  RH  093%=      5-min Rain = 0
KFR1 270955Z 20010KT 18/17 A2983 RMK A01 T01830171  RH  093%=      5-min Rain = 0
KFR1 270956Z 20010KT 18/17 A2983 RMK A01 T01830172  RH  093%=      5-min Rain = 0
KFR1 270957Z 20010KT 18/17 A2983 RMK A01 T01830172  RH  093%=      5-min Rain = 0
KFR1 270958Z 20008KT 18/17 A2983 RMK A01 T01830172  RH  093%=      5-min Rain = 0
KFR1 270959Z 20010KT 18/17 A2983 RMK A01 T01830172  RH  093%=      5-min Rain = 0
KFR1 271000Z 20011KT 18/17 A2983 RMK A01 T01830171  RH  093%=      5-min Rain = 0
KFR1 271001Z 20009KT 18/17 A2983 RMK A01 T01830171  RH  093%=      5-min Rain = 0
KFR1 271002Z 20010KT 18/17 A2983 RMK A01 T01830171  RH  093%=      5-min Rain = 0
KFR1 271003Z 20008KT 18/17 A2983 RMK A01 T01830171  RH  093%=      5-min Rain = 0
KFR1 271004Z 20008KT 18/17 A2983 RMK A01 T01830171  RH  093%=      5-min Rain = 0
KFR1 271005Z 20009KT 18/17 A2983 RMK A01 T01830171  RH  093%=      5-min Rain = 0
KFR1 271006Z 20008KT 18/17 A2983 RMK A01 T01830171  RH  093%=      5-min Rain = 0
KFR1 271007Z 20009KT 18/17 A2983 RMK A01 T01830171  RH  093%=      5-min Rain = 0
KFR1 271008Z 21008KT 18/17 A2983 RMK A01 T01820171  RH  093%=      5-min Rain = 0
KFR1 271009Z 21010KT 18/17 A2983 RMK A01 T01820171  RH  093%=      5-min Rain = 0
KFR1 271010Z 21009KT 18/17 A2983 RMK A01 T01830171  RH  093%=      5-min Rain = 0
KFR1 271011Z 21008KT 18/17 A2983 RMK A01 T01830171  RH  093%=      5-min Rain = 0
KFR1 271012Z 20010KT 18/17 A2983 RMK A01 T01830171  RH  093%=      5-min Rain = 0
KFR1 271013Z 20009KT 18/17 A2983 RMK A01 T01830171  RH  093%=      5-min Rain = 0
KFR1 271014Z 20010KT 18/17 A2983 RMK A01 T01830171  RH  093%=      5-min Rain = 0
KFR1 271015Z 20009KT 18/17 A2983 RMK A01 T01830171  RH  093%=      5-min Rain = 0
KFR1 271016Z 20008KT 18/17 A2983 RMK A01 T01830171  RH  093%=      5-min Rain = 0
KFR1 271017Z 20009KT 18/17 A2983 RMK A01 T01830171  RH  093%=      5-min Rain = 0
KFR1 271018Z 20009KT 18/17 A2983 RMK A01 T01830171  RH  093%=      5-min Rain = 0
KFR1 271019Z 20009KT 18/17 A2983 RMK A01 T01830171  RH  093%=      5-min Rain = 0
KFR1 271020Z 20009KT 18/17 A2983 RMK A01 T01820171  RH  093%=      5-min Rain = 0
KFR1 271021Z 20009KT 18/17 A2983 RMK A01 T01820171  RH  093%=      5-min Rain = 0
KFR1 271022Z 20009KT 18/17 A2983 RMK A01 T01810170  RH  093%=      5-min Rain = 0
KFR1 271023Z 21008KT 18/17 A2983 RMK A01 T01810170  RH  093%=      5-min Rain = 0
KFR1 271024Z 20009KT 18/17 A2983 RMK A01 T01810170  RH  093%=      5-min Rain = 0
KFR1 271025Z 21010KT 18/17 A2983 RMK A01 T01820171  RH  093%=      5-min Rain = 0
KFR1 271026Z 20010KT 18/17 A2983 RMK A01 T01810170  RH  093%=      5-min Rain = 0
KFR1 271027Z 20009KT 18/17 A2983 RMK A01 T01820170  RH  093%=      5-min Rain = 0
KFR1 271028Z 21010KT 18/17 A2983 RMK A01 T01810170  RH  093%=      5-min Rain = 0
KFR1 271029Z 21009KT 18/17 A2983 RMK A01 T01820170  RH  093%=      5-min Rain = 0
KFR1 271030Z 20009KT 18/17 A2983 RMK A01 T01820170  RH  093%=      5-min Rain = 0
KFR1 271031Z 21009KT 18/17 A2983 RMK A01 T01820170  RH  093%=      5-min Rain = 0
KFR1 271032Z 20009KT 18/17 A2983 RMK A01 T01820171  RH  093%=      5-min Rain = 0
KFR1 271033Z 21010KT 18/17 A2983 RMK A01 T01820170  RH  093%=      5-min Rain = 0
KFR1 271034Z 20009KT 18/17 A2983 RMK A01 T01810170  RH  093%=      5-min Rain = 0
KFR1 271035Z 20009KT 18/17 A2983 RMK A01 T01820170  RH  093%=      5-min Rain = 0
KFR1 271036Z 20009KT 18/17 A2983 RMK A01 T01810170  RH  093%=      5-min Rain = 0
KFR1 271037Z 20010KT 18/17 A2983 RMK A01 T01810170  RH  093%=      5-min Rain = 0
KFR1 271038Z 20009KT 18/17 A2983 RMK A01 T01810170  RH  093%=      5-min Rain = 0
KFR1 271039Z 20009KT 18/17 A2983 RMK A01 T01810170  RH  093%=      5-min Rain = 0
KFR1 271040Z 20010KT 18/17 A2983 RMK A01 T01810170  RH  093%=      5-min Rain = 0
KFR1 271041Z 20010KT 18/17 A2983 RMK A01 T01810170  RH  093%=      5-min Rain = 0
KFR1 271042Z 20010KT 18/17 A2983 RMK A01 T01810170  RH  093%=      5-min Rain = 0
KFR1 271043Z 20009KT 18/17 A2983 RMK A01 T01810170  RH  093%=      5-min Rain = 0
KFR1 271044Z 20010KT 18/17 A2983 RMK A01 T01810170  RH  093%=      5-min Rain = 0
KFR1 271045Z 20009KT 18/17 A2983 RMK A01 T01810169  RH  093%=      5-min Rain = 0
KFR1 271046Z 20009KT 18/17 A2983 RMK A01 T01810169  RH  093%=      5-min Rain = 0
KFR1 271047Z 20009KT 18/17 A2983 RMK A01 T01810169  RH  093%=      5-min Rain = 0
KFR1 271048Z 20008KT 18/17 A2984 RMK A01 T01800169  RH  093%=      5-min Rain = 0
KFR1 271049Z 20010KT 18/17 A2984 RMK A01 T01800169  RH  093%=      5-min Rain = 0
KFR1 271050Z 21008KT 18/17 A2984 RMK A01 T01800169  RH  093%=      5-min Rain = 0
KFR1 271051Z 20008KT 18/17 A2984 RMK A01 T01800169  RH  093%=      5-min Rain = 0
KFR1 271052Z 21009KT 18/17 A2984 RMK A01 T01800169  RH  093%=      5-min Rain = 0
KFR1 271053Z 20010KT 18/17 A2984 RMK A01 T01800169  RH  093%=      5-min Rain = 0
KFR1 271054Z 20008KT 18/17 A2984 RMK A01 T01800169  RH  093%=      5-min Rain = 0
KFR1 271055Z 20007KT 18/17 A2984 RMK A01 T01790168  RH  093%=      5-min Rain = 0
KFR1 271056Z 20008KT 18/17 A2984 RMK A01 T01790168  RH  093%=      5-min Rain = 0
KFR1 271057Z 20009KT 18/17 A2984 RMK A01 T01790168  RH  094%=      5-min Rain = 0
KFR1 271058Z 20009KT 18/17 A2984 RMK A01 T01790168  RH  094%=      5-min Rain = 0
KFR1 271059Z 20009KT 18/17 A2984 RMK A01 T01790168  RH  094%=      5-min Rain = 0
KFR1 271100Z 21008KT 18/17 A2984 RMK A01 T01790168  RH  093%=      5-min Rain = 0
KFR1 271101Z 20009KT 18/17 A2984 RMK A01 T01790168  RH  093%=      5-min Rain = 0
KFR1 271102Z 21008KT 18/17 A2984 RMK A01 T01790168  RH  094%=      5-min Rain = 0
KFR1 271103Z 21010KT 18/17 A2984 RMK A01 T01790168  RH  094%=      5-min Rain = 0
KFR1 271104Z 20010KT 18/17 A2984 RMK A01 T01790168  RH  093%=      5-min Rain = 0
KFR1 271105Z 21008KT 18/17 A2984 RMK A01 T01790168  RH  093%=      5-min Rain = 0
KFR1 271106Z 21008KT 18/17 A2984 RMK A01 T01790168  RH  093%=      5-min Rain = 0
KFR1 271107Z 20008KT 18/17 A2984 RMK A01 T01780167  RH  093%=      5-min Rain = 0
KFR1 271108Z 20008KT 18/17 A2984 RMK A01 T01780167  RH  093%=      5-min Rain = 0
KFR1 271109Z 21009KT 18/17 A2984 RMK A01 T01780168  RH  093%=      5-min Rain = 0
KFR1 271110Z 21007KT 18/17 A2984 RMK A01 T01780168  RH  093%=      5-min Rain = 0
KFR1 271111Z 21007KT 18/17 A2984 RMK A01 T01780167  RH  093%=      5-min Rain = 0
KFR1 271112Z 21008KT 18/17 A2984 RMK A01 T01780167  RH  093%=      5-min Rain = 0
KFR1 271113Z 21008KT 18/17 A2984 RMK A01 T01780167  RH  093%=      5-min Rain = 0
KFR1 271114Z 21008KT 18/17 A2984 RMK A01 T01780167  RH  093%=      5-min Rain = 0
KFR1 271115Z 21008KT 18/17 A2984 RMK A01 T01780167  RH  093%=      5-min Rain = 0
KFR1 271116Z 21008KT 18/17 A2984 RMK A01 T01780167  RH  093%=      5-min Rain = 0
KFR1 271117Z 21009KT 18/17 A2985 RMK A01 T01780167  RH  093%=      5-min Rain = 0
KFR1 271118Z 21009KT 18/17 A2985 RMK A01 T01780167  RH  093%=      5-min Rain = 0
KFR1 271119Z 21007KT 18/17 A2985 RMK A01 T01770166  RH  093%=      5-min Rain = 0
KFR1 271120Z 21008KT 18/17 A2985 RMK A01 T01770166  RH  093%=      5-min Rain = 0
KFR1 271121Z 21007KT 18/17 A2985 RMK A01 T01770166  RH  094%=      5-min Rain = 0
KFR1 271122Z 21008KT 18/17 A2985 RMK A01 T01760166  RH  094%=      5-min Rain = 0
KFR1 271123Z 21007KT 18/17 A2984 RMK A01 T01760166  RH  094%=      5-min Rain = 0
KFR1 271124Z 21007KT 18/17 A2985 RMK A01 T01760166  RH  094%=      5-min Rain = 0
KFR1 271125Z 21007KT 18/17 A2985 RMK A01 T01760166  RH  094%=      5-min Rain = 0
KFR1 271126Z 21007KT 18/17 A2985 RMK A01 T01760166  RH  094%=      5-min Rain = 0
KFR1 271127Z 21007KT 18/17 A2985 RMK A01 T01760166  RH  094%=      5-min Rain = 0
KFR1 271128Z 21008KT 18/17 A2984 RMK A01 T01760166  RH  094%=      5-min Rain = 0
KFR1 271129Z 21008KT 18/17 A2984 RMK A01 T01760166  RH  094%=      5-min Rain = 0
KFR1 271130Z 20007KT 18/17 A2984 RMK A01 T01760166  RH  094%=      5-min Rain = 0
KFR1 271131Z 21006KT 18/17 A2984 RMK A01 T01760165  RH  094%=      5-min Rain = 0
KFR1 271132Z 21007KT 18/17 A2985 RMK A01 T01760166  RH  094%=      5-min Rain = 0
KFR1 271133Z 21008KT 18/17 A2985 RMK A01 T01750165  RH  094%=      5-min Rain = 0
KFR1 271134Z 21008KT 18/17 A2985 RMK A01 T01750165  RH  094%=      5-min Rain = 0
KFR1 271135Z 21009KT 18/17 A2985 RMK A01 T01760166  RH  094%=      5-min Rain = 0
KFR1 271136Z 21007KT 18/17 A2985 RMK A01 T01750165  RH  094%=      5-min Rain = 0
KFR1 271137Z 20007KT 18/17 A2984 RMK A01 T01750165  RH  094%=      5-min Rain = 0
KFR1 271138Z 21007KT 18/17 A2984 RMK A01 T01750165  RH  094%=      5-min Rain = 0
KFR1 271139Z 21007KT 18/17 A2984 RMK A01 T01750165  RH  094%=      5-min Rain = 0
KFR1 271140Z 21009KT 18/17 A2984 RMK A01 T01750165  RH  094%=      5-min Rain = 0
KFR1 271141Z 21008KT 18/17 A2984 RMK A01 T01750165  RH  094%=      5-min Rain = 0
KFR1 271142Z 21008KT 18/17 A2984 RMK A01 T01750165  RH  094%=      5-min Rain = 0
KFR1 271143Z 21008KT 18/17 A2984 RMK A01 T01750165  RH  094%=      5-min Rain = 0
KFR1 271144Z 20009KT 18/17 A2984 RMK A01 T01760166  RH  094%=      5-min Rain = 0
KFR1 271145Z 21008KT 18/17 A2984 RMK A01 T01760165  RH  094%=      5-min Rain = 0
KFR1 271146Z 20007KT 18/17 A2984 RMK A01 T01750165  RH  094%=      5-min Rain = 0
KFR1 271147Z 21008KT 18/17 A2984 RMK A01 T01750165  RH  094%=      5-min Rain = 0
KFR1 271148Z 21008KT 18/17 A2984 RMK A01 T01750165  RH  094%=      5-min Rain = 0
KFR1 271149Z 20008KT 18/17 A2984 RMK A01 T01750165  RH  094%=      5-min Rain = 0
KFR1 271150Z 21009KT 18/17 A2984 RMK A01 T01760165  RH  094%=      5-min Rain = 0
KFR1 271151Z 20009KT 18/17 A2984 RMK A01 T01760166  RH  094%=      5-min Rain = 0
KFR1 271152Z 21010KT 18/17 A2984 RMK A01 T01760166  RH  093%=      5-min Rain = 0
KFR1 271153Z 20010KT 18/17 A2984 RMK A01 T01760165  RH  093%=      5-min Rain = 0
KFR1 271154Z 21009KT 18/17 A2984 RMK A01 T01760165  RH  093%=      5-min Rain = 0
KFR1 271155Z 21009KT 18/17 A2984 RMK A01 T01760165  RH  093%=      5-min Rain = 0
KFR1 271156Z 20009KT 18/17 A2984 RMK A01 T01760165  RH  093%=      5-min Rain = 0
KFR1 271157Z 21008KT 18/17 A2984 RMK A01 T01760165  RH  093%=      5-min Rain = 0
KFR1 271158Z 21010KT 18/17 A2984 RMK A01 T01760165  RH  093%=      5-min Rain = 0
KFR1 271159Z 21009KT 18/17 A2984 RMK A01 T01760165  RH  093%=      5-min Rain = 0
KFR1 271200Z 21009KT 18/17 A2984 RMK A01 T01770166  RH  093%=      5-min Rain = 0
KFR1 271201Z 21008KT 18/17 A2984 RMK A01 T01770165  RH  093%=      5-min Rain = 0
KFR1 271202Z 21010KT 18/17 A2984 RMK A01 T01770165  RH  093%=      5-min Rain = 0
KFR1 271203Z 21009KT 18/17 A2984 RMK A01 T01770166  RH  093%=      5-min Rain = 0
KFR1 271204Z 21010KT 18/17 A2984 RMK A01 T01770166  RH  093%=      5-min Rain = 0
KFR1 271205Z 21010KT 18/17 A2985 RMK A01 T01770166  RH  093%=      5-min Rain = 0
KFR1 271206Z 21009KT 18/17 A2985 RMK A01 T01770166  RH  093%=      5-min Rain = 0
KFR1 271207Z 21009KT 18/17 A2985 RMK A01 T01770166  RH  093%=      5-min Rain = 0
KFR1 271208Z 21009KT 18/17 A2985 RMK A01 T01770166  RH  093%=      5-min Rain = 0
KFR1 271209Z 21009KT 18/17 A2984 RMK A01 T01770165  RH  093%=      5-min Rain = 0
KFR1 271210Z 21008KT 18/17 A2984 RMK A01 T01770166  RH  093%=      5-min Rain = 0
KFR1 271211Z 21009KT 18/17 A2984 RMK A01 T01770166  RH  093%=      5-min Rain = 0
KFR1 271212Z 21009KT 18/17 A2985 RMK A01 T01770166  RH  093%=      5-min Rain = 0
KFR1 271213Z 21009KT 18/17 A2985 RMK A01 T01780166  RH  093%=      5-min Rain = 0
KFR1 271214Z 20009KT 18/17 A2985 RMK A01 T01780166  RH  093%=      5-min Rain = 0
KFR1 271215Z 21010KT 18/17 A2985 RMK A01 T01780166  RH  093%=      5-min Rain = 0
KFR1 271216Z 21010KT 18/17 A2985 RMK A01 T01780166  RH  093%=      5-min Rain = 0
KFR1 271217Z 21010KT 18/17 A2985 RMK A01 T01780166  RH  093%=      5-min Rain = 0
KFR1 271218Z 21012KT 18/17 A2985 RMK A01 T01780166  RH  093%=      5-min Rain = 0
KFR1 271219Z 21009KT 18/17 A2985 RMK A01 T01790166  RH  092%=      5-min Rain = 0
KFR1 271220Z 20011KT 18/17 A2985 RMK A01 T01790166  RH  092%=      5-min Rain = 0
KFR1 271221Z 21011KT 18/17 A2984 RMK A01 T01790166  RH  092%=      5-min Rain = 0
KFR1 271222Z 21010KT 18/17 A2984 RMK A01 T01790166  RH  092%=      5-min Rain = 0
KFR1 271223Z 20009KT 18/17 A2984 RMK A01 T01800167  RH  092%=      5-min Rain = 0
KFR1 271224Z 21010KT 18/17 A2984 RMK A01 T01800166  RH  092%=      5-min Rain = 0
KFR1 271225Z 20011KT 18/17 A2984 RMK A01 T01790166  RH  092%=      5-min Rain = 0
KFR1 271226Z 20012KT 18/17 A2985 RMK A01 T01800166  RH  092%=      5-min Rain = 0
KFR1 271227Z 21011KT 18/17 A2985 RMK A01 T01800166  RH  092%=      5-min Rain = 0
KFR1 271228Z 21012KT 18/17 A2985 RMK A01 T01800166  RH  091%=      5-min Rain = 0
KFR1 271229Z 21010KT 18/17 A2985 RMK A01 T01800166  RH  091%=      5-min Rain = 0
KFR1 271230Z 21010KT 18/17 A2985 RMK A01 T01810166  RH  091%=      5-min Rain = 0
KFR1 271231Z 21012KT 18/17 A2985 RMK A01 T01810167  RH  091%=      5-min Rain = 0
KFR1 271232Z 20010KT 18/17 A2985 RMK A01 T01810167  RH  091%=      5-min Rain = 0
KFR1 271233Z 21010KT 18/17 A2985 RMK A01 T01810167  RH  091%=      5-min Rain = 0
KFR1 271234Z 20010KT 18/17 A2985 RMK A01 T01810167  RH  091%=      5-min Rain = 0
KFR1 271235Z 20010KT 18/17 A2985 RMK A01 T01810167  RH  091%=      5-min Rain = 0
KFR1 271236Z 20010KT 18/17 A2985 RMK A01 T01810167  RH  091%=      5-min Rain = 0
KFR1 271237Z 20011KT 18/17 A2985 RMK A01 T01820167  RH  091%=      5-min Rain = 0
KFR1 271238Z 20010KT 18/17 A2985 RMK A01 T01820167  RH  091%=      5-min Rain = 0
KFR1 271239Z 20012KT 18/17 A2985 RMK A01 T01820167  RH  091%=      5-min Rain = 0
KFR1 271240Z 20010KT 18/17 A2985 RMK A01 T01830168  RH  091%=      5-min Rain = 0
KFR1 271241Z 20012KT 18/17 A2985 RMK A01 T01830168  RH  091%=      5-min Rain = 0
KFR1 271242Z 20011KT 18/17 A2985 RMK A01 T01830167  RH  091%=      5-min Rain = 0
KFR1 271243Z 20011KT 18/17 A2985 RMK A01 T01830168  RH  091%=      5-min Rain = 0
KFR1 271244Z 21010KT 18/17 A2985 RMK A01 T01830168  RH  091%=      5-min Rain = 0
KFR1 271245Z 20011KT 18/17 A2985 RMK A01 T01830168  RH  091%=      5-min Rain = 0
KFR1 271246Z 20011KT 18/17 A2985 RMK A01 T01840168  RH  091%=      5-min Rain = 0
KFR1 271247Z 20011KT 18/17 A2985 RMK A01 T01840168  RH  091%=      5-min Rain = 0
KFR1 271248Z 21011KT 18/17 A2985 RMK A01 T01840168  RH  091%=      5-min Rain = 0
KFR1 271249Z 20013KT 18/17 A2985 RMK A01 T01840168  RH  090%=      5-min Rain = 0
KFR1 271250Z 21011KT 19/17 A2985 RMK A01 T01850168  RH  090%=      5-min Rain = 0
KFR1 271251Z 21012KT 19/17 A2985 RMK A01 T01850169  RH  090%=      5-min Rain = 0
KFR1 271252Z 20011G16KT 19/17 A2985 RMK A01 T01860168  RH  090%=      5-min Rain = 0
KFR1 271253Z 20012KT 19/17 A2985 RMK A01 T01860169  RH  090%=      5-min Rain = 0
KFR1 271254Z 21013KT 19/17 A2985 RMK A01 T01860169  RH  090%=      5-min Rain = 0
KFR1 271255Z 21014KT 19/17 A2985 RMK A01 T01860168  RH  089%=      5-min Rain = 0
KFR1 271256Z 21014KT 19/17 A2985 RMK A01 T01870168  RH  089%=      5-min Rain = 0
KFR1 271257Z 21012KT 19/17 A2985 RMK A01 T01870168  RH  089%=      5-min Rain = 0
KFR1 271258Z 21011KT 19/17 A2985 RMK A01 T01870169  RH  089%=      5-min Rain = 0
KFR1 271259Z 21013KT 19/17 A2985 RMK A01 T01870169  RH  089%=      5-min Rain = 0
KFR1 271300Z 21012KT 19/17 A2985 RMK A01 T01880169  RH  089%=      5-min Rain = 0
KFR1 271301Z 21013KT 19/17 A2985 RMK A01 T01880169  RH  089%=      5-min Rain = 0
KFR1 271302Z 21013KT 19/17 A2985 RMK A01 T01880170  RH  089%=      5-min Rain = 0
KFR1 271303Z 21013KT 19/17 A2985 RMK A01 T01880169  RH  089%=      5-min Rain = 0
KFR1 271304Z 21012KT 19/17 A2985 RMK A01 T01890170  RH  089%=      5-min Rain = 0
KFR1 271305Z 21010KT 19/17 A2985 RMK A01 T01890170  RH  089%=      5-min Rain = 0
KFR1 271306Z 21010KT 19/17 A2985 RMK A01 T01890170  RH  089%=      5-min Rain = 0
KFR1 271307Z 21012KT 19/17 A2985 RMK A01 T01890170  RH  089%=      5-min Rain = 0
KFR1 271308Z 21012KT 19/17 A2985 RMK A01 T01890170  RH  089%=      5-min Rain = 0
KFR1 271309Z 21011KT 19/17 A2985 RMK A01 T01900170  RH  089%=      5-min Rain = 0
KFR1 271310Z 21014KT 19/17 A2985 RMK A01 T01900171  RH  089%=      5-min Rain = 0
KFR1 271311Z 21013KT 19/17 A2985 RMK A01 T01910171  RH  088%=      5-min Rain = 0
KFR1 271312Z 21013KT 19/17 A2985 RMK A01 T01900170  RH  088%=      5-min Rain = 0
KFR1 271313Z 21013KT 19/17 A2985 RMK A01 T01910171  RH  088%=      5-min Rain = 0
KFR1 271314Z 21014KT 19/17 A2985 RMK A01 T01910171  RH  088%=      5-min Rain = 0
KFR1 271315Z 21013KT 19/17 A2985 RMK A01 T01910170  RH  088%=      5-min Rain = 0
KFR1 271316Z 21011KT 19/17 A2985 RMK A01 T01910172  RH  088%=      5-min Rain = 0
KFR1 271317Z 21011KT 19/17 A2985 RMK A01 T01910172  RH  089%=      5-min Rain = 0
KFR1 271318Z 21010KT 19/17 A2985 RMK A01 T01920173  RH  089%=      5-min Rain = 0
KFR1 271319Z 21013KT 19/17 A2985 RMK A01 T01920173  RH  088%=      5-min Rain = 0
KFR1 271320Z 21011KT 19/17 A2985 RMK A01 T01920172  RH  088%=      5-min Rain = 0
KFR1 271321Z 21010KT 19/17 A2985 RMK A01 T01930173  RH  088%=      5-min Rain = 0
KFR1 271322Z 22011KT 19/17 A2985 RMK A01 T01930173  RH  088%=      5-min Rain = 0
KFR1 271323Z 22011KT 19/17 A2985 RMK A01 T01930173  RH  088%=      5-min Rain = 0
KFR1 271324Z 22010KT 19/17 A2985 RMK A01 T01930173  RH  088%=      5-min Rain = 0
KFR1 271325Z 21010KT 19/17 A2985 RMK A01 T01940173  RH  088%=      5-min Rain = 0
KFR1 271326Z 21013KT 19/17 A2984 RMK A01 T01940173  RH  088%=      5-min Rain = 0
KFR1 271327Z 22012KT 20/17 A2985 RMK A01 T01950173  RH  087%=      5-min Rain = 0
KFR1 271328Z 22011KT 20/17 A2985 RMK A01 T01950172  RH  087%=      5-min Rain = 0
KFR1 271329Z 22013KT 20/17 A2985 RMK A01 T01950173  RH  087%=      5-min Rain = 0
KFR1 271330Z 21013KT 20/17 A2985 RMK A01 T01950172  RH  087%=      5-min Rain = 0
KFR1 271331Z 22011KT 20/17 A2985 RMK A01 T01950173  RH  087%=      5-min Rain = 0
KFR1 271332Z 22011KT 20/17 A2985 RMK A01 T01960174  RH  087%=      5-min Rain = 0
KFR1 271333Z 22012KT 20/17 A2985 RMK A01 T01960174  RH  087%=      5-min Rain = 0
KFR1 271334Z 22011KT 20/17 A2985 RMK A01 T01960174  RH  087%=      5-min Rain = 0
KFR1 271335Z 22011KT 20/18 A2985 RMK A01 T01970175  RH  087%=      5-min Rain = 0
KFR1 271336Z 22009KT 20/17 A2985 RMK A01 T01970174  RH  087%=      5-min Rain = 0
KFR1 271337Z 23013KT 20/17 A2985 RMK A01 T01970174  RH  086%=      5-min Rain = 0
KFR1 271338Z 22010KT 20/18 A2985 RMK A01 T01980175  RH  087%=      5-min Rain = 0
KFR1 271339Z 22012KT 20/17 A2985 RMK A01 T01980174  RH  086%=      5-min Rain = 0
KFR1 271340Z 21010KT 20/17 A2985 RMK A01 T01980174  RH  086%=      5-min Rain = 0
KFR1 271341Z 22010KT 20/18 A2985 RMK A01 T01990176  RH  087%=      5-min Rain = 0
KFR1 271342Z 22011KT 20/18 A2985 RMK A01 T01990175  RH  086%=      5-min Rain = 0
KFR1 271343Z 22011KT 20/18 A2985 RMK A01 T01990175  RH  086%=      5-min Rain = 0
KFR1 271344Z 22011KT 20/18 A2985 RMK A01 T01990175  RH  086%=      5-min Rain = 0
KFR1 271345Z 22012KT 20/18 A2985 RMK A01 T01990175  RH  086%=      5-min Rain = 0
KFR1 271346Z 22012KT 20/18 A2985 RMK A01 T02000175  RH  086%=      5-min Rain = 0
KFR1 271347Z 23013KT 20/17 A2985 RMK A01 T02000174  RH  085%=      5-min Rain = 0
KFR1 271348Z 22011KT 20/18 A2985 RMK A01 T02000175  RH  085%=      5-min Rain = 0
KFR1 271349Z 22012KT 20/18 A2985 RMK A01 T02000176  RH  086%=      5-min Rain = 0
KFR1 271350Z 22014KT 20/18 A2985 RMK A01 T02010175  RH  085%=      5-min Rain = 0
KFR1 271351Z 22013KT 20/18 A2985 RMK A01 T02010175  RH  085%=      5-min Rain = 0
KFR1 271352Z 22014KT 20/18 A2985 RMK A01 T02010175  RH  085%=      5-min Rain = 0
KFR1 271353Z 22014KT 20/17 A2985 RMK A01 T02010174  RH  084%=      5-min Rain = 0
KFR1 271354Z 22015KT 20/17 A2985 RMK A01 T02010174  RH  085%=      5-min Rain = 0
KFR1 271355Z 22012KT 20/18 A2985 RMK A01 T02010175  RH  085%=      5-min Rain = 0
KFR1 271356Z 22013KT 20/17 A2985 RMK A01 T02010174  RH  084%=      5-min Rain = 0
KFR1 271357Z 22013KT 20/17 A2985 RMK A01 T02020174  RH  084%=      5-min Rain = 0
KFR1 271358Z 22011KT 20/18 A2985 RMK A01 T02020175  RH  085%=      5-min Rain = 0
KFR1 271359Z 22011KT 20/18 A2985 RMK A01 T02020176  RH  085%=      5-min Rain = 0
KFR1 271400Z 22010KT 20/18 A2985 RMK A01 T02030176  RH  085%=      5-min Rain = 0
KFR1 271401Z 22011KT 20/18 A2985 RMK A01 T02030177  RH  085%=      5-min Rain = 0
KFR1 271402Z 23012KT 20/18 A2985 RMK A01 T02040177  RH  084%=      5-min Rain = 0
KFR1 271403Z 22010KT 20/18 A2985 RMK A01 T02040176  RH  084%=      5-min Rain = 0
KFR1 271404Z 22010KT 21/18 A2985 RMK A01 T02050177  RH  084%=      5-min Rain = 0
KFR1 271405Z 22010KT 21/18 A2985 RMK A01 T02050178  RH  084%=      5-min Rain = 0
KFR1 271406Z 21012KT 21/18 A2985 RMK A01 T02050176  RH  083%=      5-min Rain = 0
KFR1 271407Z 22012KT 21/18 A2985 RMK A01 T02050175  RH  083%=      5-min Rain = 0
KFR1 271408Z 22011KT 21/18 A2985 RMK A01 T02060176  RH  083%=      5-min Rain = 0
KFR1 271409Z 22012KT 21/18 A2985 RMK A01 T02060175  RH  083%=      5-min Rain = 0
KFR1 271410Z 23011KT 21/18 A2985 RMK A01 T02060175  RH  083%=      5-min Rain = 0
KFR1 271411Z 23011KT 21/18 A2985 RMK A01 T02060177  RH  083%=      5-min Rain = 0
KFR1 271412Z 23013KT 21/18 A2985 RMK A01 T02070175  RH  082%=      5-min Rain = 0
KFR1 271413Z 23012KT 21/18 A2985 RMK A01 T02070175  RH  082%=      5-min Rain = 0
KFR1 271414Z 23010KT 21/18 A2985 RMK A01 T02070175  RH  082%=      5-min Rain = 0
KFR1 271415Z 22010KT 21/18 A2985 RMK A01 T02070176  RH  082%=      5-min Rain = 0
KFR1 271416Z 23011KT 21/18 A2985 RMK A01 T02080177  RH  082%=      5-min Rain = 0
KFR1 271417Z 22013KT 21/18 A2985 RMK A01 T02080176  RH  082%=      5-min Rain = 0
KFR1 271418Z 22010KT 21/18 A2985 RMK A01 T02080176  RH  082%=      5-min Rain = 0
KFR1 271419Z 22009KT 21/18 A2985 RMK A01 T02080177  RH  082%=      5-min Rain = 0
KFR1 271420Z 23011KT 21/18 A2985 RMK A01 T02080176  RH  082%=      5-min Rain = 0
KFR1 271421Z 22010KT 21/18 A2985 RMK A01 T02080176  RH  082%=      5-min Rain = 0
KFR1 271422Z 22010KT 21/18 A2985 RMK A01 T02090178  RH  082%=      5-min Rain = 0
KFR1 271423Z 22010KT 21/18 A2985 RMK A01 T02100179  RH  082%=      5-min Rain = 0
KFR1 271424Z 23011KT 21/18 A2985 RMK A01 T02110179  RH  082%=      5-min Rain = 0
KFR1 271425Z 23009KT 21/18 A2985 RMK A01 T02110178  RH  081%=      5-min Rain = 0
KFR1 271426Z 23010KT 21/18 A2985 RMK A01 T02110177  RH  081%=      5-min Rain = 0
KFR1 271427Z 24010KT 21/18 A2985 RMK A01 T02110176  RH  080%=      5-min Rain = 0
KFR1 271428Z 23011KT 21/18 A2985 RMK A01 T02110176  RH  080%=      5-min Rain = 0
KFR1 271429Z 22012KT 21/17 A2985 RMK A01 T02110174  RH  079%=      5-min Rain = 0
KFR1 271430Z 23010KT 21/18 A2985 RMK A01 T02120175  RH  080%=      5-min Rain = 0
KFR1 271431Z 23010KT 21/18 A2985 RMK A01 T02130177  RH  080%=      5-min Rain = 0
KFR1 271432Z 24011KT 21/18 A2985 RMK A01 T02130176  RH  079%=      5-min Rain = 0
KFR1 271433Z 23010KT 21/17 A2985 RMK A01 T02130174  RH  078%=      5-min Rain = 0
KFR1 271434Z 23010KT 21/18 A2985 RMK A01 T02130176  RH  079%=      5-min Rain = 0
KFR1 271435Z 23011KT 21/18 A2985 RMK A01 T02130176  RH  079%=      5-min Rain = 0
KFR1 271436Z 23010KT 21/18 A2985 RMK A01 T02140176  RH  079%=      5-min Rain = 0
KFR1 271437Z 23008KT 21/18 A2985 RMK A01 T02140177  RH  080%=      5-min Rain = 0
KFR1 271438Z 21010KT 22/18 A2985 RMK A01 T02150177  RH  079%=      5-min Rain = 0
KFR1 271439Z 23009KT 22/18 A2985 RMK A01 T02160177  RH  078%=      5-min Rain = 0
KFR1 271440Z 22010KT 22/18 A2985 RMK A01 T02160175  RH  077%=      5-min Rain = 0
KFR1 271441Z 23010KT 22/18 A2984 RMK A01 T02160175  RH  077%=      5-min Rain = 0
KFR1 271442Z 23015KT 22/17 A2984 RMK A01 T02160173  RH  077%=      5-min Rain = 0
KFR1 271443Z 23014KT 22/17 A2984 RMK A01 T02160172  RH  076%=      5-min Rain = 0
KFR1 271444Z 23012KT 22/17 A2985 RMK A01 T02160174  RH  077%=      5-min Rain = 0
KFR1 271445Z 23012KT 22/17 A2985 RMK A01 T02160174  RH  077%=      5-min Rain = 0
KFR1 271452Z 22011KT 22/17 A2985 RMK A01 T02190173  RH  075%=      5-min Rain = 0
KFR1 271453Z 22011KT 22/17 A2985 RMK A01 T02190171  RH  074%=      5-min Rain = 0
KFR1 271454Z 22010KT 22/17 A2985 RMK A01 T02200172  RH  074%=      5-min Rain = 0
KFR1 271455Z 23011KT 22/18 A2985 RMK A01 T02200175  RH  075%=      5-min Rain = 0
KFR1 271456Z 23012KT 22/17 A2985 RMK A01 T02200173  RH  074%=      5-min Rain = 0
KFR1 271457Z 22010KT 22/17 A2985 RMK A01 T02200169  RH  073%=      5-min Rain = 0
KFR1 271458Z 24011KT 22/17 A2985 RMK A01 T02210173  RH  074%=      5-min Rain = 0
KFR1 271459Z 24012KT 22/17 A2985 RMK A01 T02220173  RH  074%=      5-min Rain = 0
KFR1 271500Z 24012KT 22/17 A2985 RMK A01 T02220173  RH  074%=      5-min Rain = 0
KFR1 271506Z 23010KT 23/17 A2985 RMK A01 T02250171  RH  071%=      5-min Rain = 0
KFR1 271507Z 23013KT 23/17 A2984 RMK A01 T02260172  RH  071%=      5-min Rain = 0
KFR1 271508Z 23013KT 23/17 A2984 RMK A01 T02260167  RH  069%=      5-min Rain = 0
KFR1 271509Z 23013KT 23/17 A2984 RMK A01 T02250167  RH  070%=      5-min Rain = 0
KFR1 271510Z 23011KT 23/17 A2984 RMK A01 T02250168  RH  070%=      5-min Rain = 0
KFR1 271511Z 23013KT 23/17 A2984 RMK A01 T02250168  RH  070%=      5-min Rain = 0
KFR1 271512Z 22011KT 23/17 A2984 RMK A01 T02260166  RH  069%=      5-min Rain = 0
KFR1 271513Z 23011KT 23/17 A2984 RMK A01 T02260167  RH  069%=      5-min Rain = 0
KFR1 271514Z 23013KT 23/17 A2984 RMK A01 T02280166  RH  068%=      5-min Rain = 0
KFR1 271515Z 23010KT 23/17 A2984 RMK A01 T02270169  RH  069%=      5-min Rain = 0
KFR1 271516Z 24012KT 23/17 A2984 RMK A01 T02280166  RH  068%=      5-min Rain = 0
KFR1 271517Z 23012KT 23/16 A2984 RMK A01 T02290163  RH  066%=      5-min Rain = 0
KFR1 271518Z 23011KT 23/16 A2984 RMK A01 T02290164  RH  067%=      5-min Rain = 0
KFR1 271519Z 23009KT 23/17 A2984 RMK A01 T02290168  RH  069%=      5-min Rain = 0
KFR1 271520Z 23009KT 23/17 A2984 RMK A01 T02290169  RH  069%=      5-min Rain = 0
KFR1 271521Z 23009KT 23/17 A2984 RMK A01 T02300171  RH  069%=      5-min Rain = 0
KFR1 271522Z 24007KT 23/17 A2984 RMK A01 T02310169  RH  068%=      5-min Rain = 0
KFR1 271523Z 22011KT 23/17 A2984 RMK A01 T02320173  RH  069%=      5-min Rain = 0
KFR1 271524Z 22011KT 23/17 A2984 RMK A01 T02330168  RH  067%=      5-min Rain = 0
KFR1 271525Z 22008KT 23/17 A2984 RMK A01 T02320170  RH  068%=      5-min Rain = 0
KFR1 271526Z 22010KT 23/17 A2984 RMK A01 T02330168  RH  067%=      5-min Rain = 0
KFR1 271527Z 23011KT 23/17 A2984 RMK A01 T02330165  RH  066%=      5-min Rain = 0
KFR1 271528Z 22011KT 23/17 A2984 RMK A01 T02330168  RH  067%=      5-min Rain = 0
KFR1 271529Z 23010KT 23/17 A2984 RMK A01 T02330172  RH  068%=      5-min Rain = 0
KFR1 271530Z 24009KT 23/17 A2984 RMK A01 T02330174  RH  069%=      5-min Rain = 0
KFR1 271531Z 23011KT 23/18 A2984 RMK A01 T02340177  RH  070%=      5-min Rain = 0
KFR1 271532Z 23009KT 23/17 A2984 RMK A01 T02340170  RH  067%=      5-min Rain = 0
KFR1 271533Z 24009KT 24/17 A2984 RMK A01 T02350171  RH  067%=      5-min Rain = 0
KFR1 271534Z 23008KT 24/17 A2984 RMK A01 T02360173  RH  068%=      5-min Rain = 0
KFR1 271535Z 23009G15KT 24/17 A2984 RMK A01 T02360172  RH  067%=      5-min Rain = 0
KFR1 271536Z 23010KT 24/16 A2984 RMK A01 T02380162  RH  063%=      5-min Rain = 0
KFR1 271537Z 24010KT 24/17 A2984 RMK A01 T02380166  RH  064%=      5-min Rain = 0
KFR1 271538Z 23012KT 24/17 A2984 RMK A01 T02380167  RH  064%=      5-min Rain = 0
KFR1 271539Z 23013KT 24/16 A2984 RMK A01 T02380160  RH  062%=      5-min Rain = 0
KFR1 271540Z 23012KT 24/16 A2984 RMK A01 T02380163  RH  063%=      5-min Rain = 0
KFR1 271541Z 23013KT 24/16 A2984 RMK A01 T02380163  RH  063%=      5-min Rain = 0
KFR1 271542Z 23013KT 24/16 A2984 RMK A01 T02380164  RH  063%=      5-min Rain = 0
KFR1 271543Z 23014KT 24/16 A2984 RMK A01 T02380164  RH  063%=      5-min Rain = 0
KFR1 271544Z 22014KT 24/16 A2984 RMK A01 T02380158  RH  061%=      5-min Rain = 0
KFR1 271545Z 23011KT 24/16 A2984 RMK A01 T02380155  RH  060%=      5-min Rain = 0
KFR1 271546Z 23009KT 24/16 A2984 RMK A01 T02390160  RH  061%=      5-min Rain = 0
KFR1 271547Z 24008KT 24/17 A2984 RMK A01 T02400166  RH  063%=      5-min Rain = 0
KFR1 271548Z 24011KT 24/16 A2984 RMK A01 T02420164  RH  062%=      5-min Rain = 0
KFR1 271549Z 23012KT 24/16 A2984 RMK A01 T02420156  RH  059%=      5-min Rain = 0
KFR1 271550Z 22011KT 24/16 A2983 RMK A01 T02420161  RH  061%=      5-min Rain = 0
KFR1 271551Z 23010KT 24/16 A2983 RMK A01 T02420158  RH  059%=      5-min Rain = 0
KFR1 271552Z 23010KT 24/17 A2983 RMK A01 T02430166  RH  062%=      5-min Rain = 0
KFR1 271553Z 23013KT 24/15 A2983 RMK A01 T02440152  RH  057%=      5-min Rain = 0
KFR1 271554Z 22012KT 24/15 A2983 RMK A01 T02430153  RH  057%=      5-min Rain = 0
KFR1 271555Z 22011KT 24/15 A2983 RMK A01 T02430154  RH  058%=      5-min Rain = 0
KFR1 271556Z 21012KT 24/16 A2983 RMK A01 T02430156  RH  058%=      5-min Rain = 0
KFR1 271557Z 22009KT 24/16 A2983 RMK A01 T02430159  RH  060%=      5-min Rain = 0
KFR1 271558Z 23009KT 24/16 A2983 RMK A01 T02440164  RH  061%=      5-min Rain = 0
KFR1 271559Z 23012KT 24/17 A2983 RMK A01 T02440167  RH  062%=      5-min Rain = 0
KFR1 271600Z 22010KT 24/16 A2983 RMK A01 T02440158  RH  059%=      5-min Rain = 0
KFR1 271601Z 22010KT 24/16 A2983 RMK A01 T02430155  RH  058%=      5-min Rain = 0
KFR1 271602Z 22010KT 24/16 A2983 RMK A01 T02420160  RH  060%=      5-min Rain = 0
KFR1 271603Z 22010KT 24/16 A2983 RMK A01 T02430159  RH  059%=      5-min Rain = 0
KFR1 271604Z 24010KT 25/17 A2983 RMK A01 T02450165  RH  061%=      5-min Rain = 0
KFR1 271605Z 24009KT 25/16 A2983 RMK A01 T02460164  RH  060%=      5-min Rain = 0
KFR1 271606Z 22011KT 25/16 A2983 RMK A01 T02470160  RH  058%=      5-min Rain = 0
KFR1 271607Z 23014KT 25/15 A2983 RMK A01 T02470153  RH  056%=      5-min Rain = 0
KFR1 271608Z 23012KT 25/15 A2983 RMK A01 T02470149  RH  055%=      5-min Rain = 0
KFR1 271609Z 23011KT 25/15 A2983 RMK A01 T02470150  RH  055%=      5-min Rain = 0
KFR1 271610Z 23011KT 25/15 A2983 RMK A01 T02470148  RH  054%=      5-min Rain = 0
KFR1 271611Z 24010KT 25/15 A2983 RMK A01 T02480154  RH  056%=      5-min Rain = 0
KFR1 271612Z 23011G16KT 25/15 A2983 RMK A01 T02490153  RH  055%=      5-min Rain = 0
KFR1 271613Z 23011KT 25/15 A2983 RMK A01 T02500148  RH  053%=      5-min Rain = 0
KFR1 271614Z 23011KT 25/15 A2983 RMK A01 T02510145  RH  052%=      5-min Rain = 0
KFR1 271615Z 24011KT 25/15 A2984 RMK A01 T02500150  RH  054%=      5-min Rain = 0
KFR1 271616Z 23011KT 25/15 A2984 RMK A01 T02500153  RH  055%=      5-min Rain = 0
KFR1 271617Z 23011KT 25/15 A2983 RMK A01 T02500148  RH  053%=      5-min Rain = 0
KFR1 271618Z 23011KT 25/15 A2984 RMK A01 T02500151  RH  054%=      5-min Rain = 0
KFR1 271619Z 22009KT 25/16 A2984 RMK A01 T02510162  RH  058%=      5-min Rain = 0
KFR1 271620Z 23011KT 25/16 A2984 RMK A01 T02530156  RH  055%=      5-min Rain = 0
KFR1 271621Z 23013KT 25/15 A2984 RMK A01 T02520153  RH  054%=      5-min Rain = 0
KFR1 271622Z 23010KT 25/16 A2984 RMK A01 T02510156  RH  055%=      5-min Rain = 0
KFR1 271623Z 22011KT 25/15 A2984 RMK A01 T02510151  RH  054%=      5-min Rain = 0
KFR1 271624Z 22011KT 25/14 A2984 RMK A01 T02510143  RH  051%=      5-min Rain = 0
KFR1 271625Z 23009KT 25/15 A2984 RMK A01 T02510147  RH  052%=      5-min Rain = 0
KFR1 271626Z 23010KT 25/15 A2984 RMK A01 T02520150  RH  053%=      5-min Rain = 0
KFR1 271627Z 23010KT 25/15 A2984 RMK A01 T02520147  RH  052%=      5-min Rain = 0
KFR1 271628Z 24010KT 25/15 A2984 RMK A01 T02520146  RH  052%=      5-min Rain = 0
KFR1 271629Z 24007KT 25/15 A2984 RMK A01 T02530151  RH  053%=      5-min Rain = 0
KFR1 271630Z 23010KT 25/15 A2984 RMK A01 T02540154  RH  054%=      5-min Rain = 0
KFR1 271631Z 22008KT 25/15 A2984 RMK A01 T02540151  RH  053%=      5-min Rain = 0
KFR1 271632Z 23009KT 25/15 A2984 RMK A01 T02540150  RH  053%=      5-min Rain = 0
KFR1 271633Z 23009KT 25/15 A2984 RMK A01 T02530154  RH  054%=      5-min Rain = 0
KFR1 271634Z 23010KT 25/16 A2984 RMK A01 T02530155  RH  054%=      5-min Rain = 0
KFR1 271635Z 23010KT 25/14 A2984 RMK A01 T02540143  RH  050%=      5-min Rain = 0
KFR1 271636Z 23010KT 25/14 A2984 RMK A01 T02540143  RH  050%=      5-min Rain = 0
KFR1 271637Z 23009KT 26/14 A2984 RMK A01 T02550139  RH  049%=      5-min Rain = 0
KFR1 271638Z 23009KT 26/14 A2984 RMK A01 T02550137  RH  048%=      5-min Rain = 0
KFR1 271639Z 23010KT 26/14 A2984 RMK A01 T02560142  RH  049%=      5-min Rain = 0
KFR1 271640Z 23010KT 26/14 A2984 RMK A01 T02560138  RH  048%=      5-min Rain = 0
KFR1 271641Z 22008KT 26/13 A2984 RMK A01 T02560132  RH  046%=      5-min Rain = 0
KFR1 271642Z 21008KT 26/14 A2984 RMK A01 T02580139  RH  048%=      5-min Rain = 0
KFR1 271643Z 21010KT 26/14 A2984 RMK A01 T02590136  RH  047%=      5-min Rain = 0
KFR1 271644Z 23012KT 26/13 A2984 RMK A01 T02610132  RH  045%=      5-min Rain = 0
KFR1 271645Z 21009KT 26/13 A2984 RMK A01 T02600126  RH  043%=      5-min Rain = 0
KFR1 271646Z 22009KT 26/13 A2983 RMK A01 T02600130  RH  045%=      5-min Rain = 0
KFR1 271647Z 22010KT 26/13 A2984 RMK A01 T02600132  RH  045%=      5-min Rain = 0
KFR1 271648Z 22010KT 26/13 A2984 RMK A01 T02610131  RH  045%=      5-min Rain = 0
KFR1 271649Z 23011KT 26/13 A2984 RMK A01 T02610133  RH  045%=      5-min Rain = 0
KFR1 271650Z 22009KT 26/13 A2984 RMK A01 T02600130  RH  044%=      5-min Rain = 0
KFR1 271651Z 22007KT 26/13 A2984 RMK A01 T02600133  RH  046%=      5-min Rain = 0
KFR1 271652Z 24006KT 26/14 A2984 RMK A01 T02610141  RH  047%=      5-min Rain = 0
KFR1 271653Z 23009KT 26/13 A2984 RMK A01 T02620128  RH  043%=      5-min Rain = 0
KFR1 271654Z 24009KT 26/13 A2984 RMK A01 T02630126  RH  042%=      5-min Rain = 0
KFR1 271655Z 22010KT 26/12 A2984 RMK A01 T02640124  RH  042%=      5-min Rain = 0
KFR1 271656Z 23012KT 26/13 A2984 RMK A01 T02640125  RH  042%=      5-min Rain = 0
KFR1 271657Z 22010KT 26/10 A2983 RMK A01 T02640104  RH  037%=      5-min Rain = 0
KFR1 271658Z 23009KT 27/10 A2983 RMK A01 T02650100  RH  036%=      5-min Rain = 0
KFR1 271659Z 23009KT 27/12 A2984 RMK A01 T02650119  RH  040%=      5-min Rain = 0
KFR1 271700Z 22008KT 27/12 A2984 RMK A01 T02650124  RH  042%=      5-min Rain = 0
KFR1 271701Z 23006KT 27/13 A2984 RMK A01 T02660128  RH  042%=      5-min Rain = 0
KFR1 271702Z 25008KT 27/13 A2984 RMK A01 T02670126  RH  041%=      5-min Rain = 0
KFR1 271703Z 25009KT 27/12 A2984 RMK A01 T02670124  RH  041%=      5-min Rain = 0
KFR1 271704Z 23013KT 27/12 A2983 RMK A01 T02670116  RH  039%=      5-min Rain = 0
KFR1 271705Z 23010KT 27/11 A2983 RMK A01 T02670105  RH  036%=      5-min Rain = 0
KFR1 271706Z 24008KT 27/11 A2983 RMK A01 T02650113  RH  039%=      5-min Rain = 0
KFR1 271707Z 23007KT 27/13 A2983 RMK A01 T02660129  RH  043%=      5-min Rain = 0
KFR1 271708Z 24010KT 27/13 A2983 RMK A01 T02670125  RH  041%=      5-min Rain = 0
KFR1 271709Z 23010KT 27/12 A2983 RMK A01 T02680119  RH  040%=      5-min Rain = 0
KFR1 271710Z 23009KT 27/11 A2983 RMK A01 T02690114  RH  038%=      5-min Rain = 0
KFR1 271711Z 22011KT 27/12 A2983 RMK A01 T02700118  RH  039%=      5-min Rain = 0
KFR1 271712Z 22010KT 27/12 A2983 RMK A01 T02700120  RH  039%=      5-min Rain = 0
KFR1 271713Z 23012KT 27/11 A2983 RMK A01 T02700114  RH  038%=      5-min Rain = 0
KFR1 271714Z 22012KT 27/11 A2983 RMK A01 T02690109  RH  037%=      5-min Rain = 0
KFR1 271715Z 22011KT 27/09 A2983 RMK A01 T02680093  RH  033%=      5-min Rain = 0
KFR1 271716Z 22011KT 27/09 A2983 RMK A01 T02690091  RH  033%=      5-min Rain = 0
KFR1 271717Z 23011KT 27/10 A2983 RMK A01 T02700102  RH  035%=      5-min Rain = 0
KFR1 271718Z 24013KT 27/10 A2983 RMK A01 T02700102  RH  035%=      5-min Rain = 0
KFR1 271719Z 25011KT 27/10 A2983 RMK A01 T02690098  RH  034%=      5-min Rain = 0
KFR1 271720Z 23011KT 27/11 A2983 RMK A01 T02690105  RH  036%=      5-min Rain = 0
KFR1 271721Z 23013KT 27/10 A2983 RMK A01 T02690097  RH  034%=      5-min Rain = 0
KFR1 271722Z 23008KT 27/10 A2983 RMK A01 T02690103  RH  035%=      5-min Rain = 0
KFR1 271723Z 23007KT 27/11 A2983 RMK A01 T02690114  RH  038%=      5-min Rain = 0
KFR1 271724Z 23008KT 27/12 A2983 RMK A01 T02700119  RH  039%=      5-min Rain = 0
KFR1 271725Z 22007KT 27/12 A2983 RMK A01 T02720118  RH  038%=      5-min Rain = 0
KFR1 271726Z 23006KT 27/12 A2983 RMK A01 T02730124  RH  040%=      5-min Rain = 0
KFR1 271727Z 23011KT 27/12 A2983 RMK A01 T02740117  RH  038%=      5-min Rain = 0
KFR1 271728Z 22012KT 27/11 A2983 RMK A01 T02740105  RH  035%=      5-min Rain = 0
KFR1 271729Z 23012KT 27/11 A2983 RMK A01 T02730106  RH  035%=      5-min Rain = 0
KFR1 271730Z 23010G15KT 27/10 A2983 RMK A01 T02730098  RH  033%=      5-min Rain = 0
KFR1 271731Z 23011KT 27/11 A2983 RMK A01 T02730109  RH  036%=      5-min Rain = 0
KFR1 271732Z 22011KT 27/10 A2983 RMK A01 T02730103  RH  034%=      5-min Rain = 0
KFR1 271733Z 23013KT 27/09 A2983 RMK A01 T02730092  RH  032%=      5-min Rain = 0
KFR1 271734Z 24012KT 27/10 A2983 RMK A01 T02720096  RH  033%=      5-min Rain = 0
KFR1 271735Z 24011KT 27/10 A2983 RMK A01 T02720101  RH  034%=      5-min Rain = 0
KFR1 271736Z 24011KT 27/10 A2983 RMK A01 T02720096  RH  033%=      5-min Rain = 0
KFR1 271737Z 24009G14KT 27/10 A2983 RMK A01 T02720095  RH  033%=      5-min Rain = 0
KFR1 271738Z 21008KT 27/10 A2983 RMK A01 T02710100  RH  034%=      5-min Rain = 0
KFR1 271739Z 23007KT 27/11 A2983 RMK A01 T02720106  RH  035%=      5-min Rain = 0
KFR1 271740Z 23008KT 27/11 A2983 RMK A01 T02730108  RH  036%=      5-min Rain = 0
KFR1 271741Z 23009KT 27/10 A2983 RMK A01 T02740104  RH  035%=      5-min Rain = 0
KFR1 271742Z 23012KT 28/09 A2983 RMK A01 T02750090  RH  031%=      5-min Rain = 0
KFR1 271743Z 23010KT 28/09 A2983 RMK A01 T02750090  RH  031%=      5-min Rain = 0
KFR1 271744Z 25012KT 28/09 A2983 RMK A01 T02750087  RH  031%=      5-min Rain = 0
KFR1 271745Z 24010KT 28/09 A2983 RMK A01 T02750085  RH  030%=      5-min Rain = 0
KFR1 271746Z 26011KT 27/09 A2983 RMK A01 T02740091  RH  032%=      5-min Rain = 0
KFR1 271747Z 25011KT 27/09 A2983 RMK A01 T02740094  RH  032%=      5-min Rain = 0
KFR1 271748Z 26011KT 28/09 A2983 RMK A01 T02750092  RH  032%=      5-min Rain = 0
KFR1 271749Z 25010KT 27/09 A2983 RMK A01 T02740087  RH  031%=      5-min Rain = 0
KFR1 271750Z 25010KT 27/10 A2983 RMK A01 T02730102  RH  034%=      5-min Rain = 0
KFR1 271751Z 25011KT 27/10 A2983 RMK A01 T02740103  RH  034%=      5-min Rain = 0
KFR1 271752Z 25011KT 27/10 A2983 RMK A01 T02740097  RH  033%=      5-min Rain = 0
KFR1 271753Z 24013KT 28/10 A2982 RMK A01 T02750104  RH  034%=      5-min Rain = 0
KFR1 271754Z 22010KT 27/10 A2983 RMK A01 T02740096  RH  033%=      5-min Rain = 0
KFR1 271755Z 22010KT 27/10 A2982 RMK A01 T02740098  RH  033%=      5-min Rain = 0
KFR1 271756Z 23012KT 27/10 A2982 RMK A01 T02740103  RH  034%=      5-min Rain = 0
KFR1 271757Z 23012KT 28/10 A2982 RMK A01 T02750103  RH  034%=      5-min Rain = 0
KFR1 271758Z 22009KT 28/10 A2982 RMK A01 T02750101  RH  034%=      5-min Rain = 0
KFR1 271759Z 22009KT 28/10 A2982 RMK A01 T02750102  RH  034%=      5-min Rain = 0
KFR1 271800Z 24010KT 28/11 A2982 RMK A01 T02760107  RH  035%=      5-min Rain = 0
KFR1 271801Z 25010KT 28/11 A2982 RMK A01 T02760105  RH  034%=      5-min Rain = 0
KFR1 271802Z 23013KT 28/11 A2982 RMK A01 T02760108  RH  035%=      5-min Rain = 0
KFR1 271803Z 23012KT 28/11 A2982 RMK A01 T02760107  RH  035%=      5-min Rain = 0
KFR1 271804Z 23010KT 28/11 A2982 RMK A01 T02760106  RH  035%=      5-min Rain = 0
KFR1 271805Z 23010KT 28/11 A2982 RMK A01 T02770105  RH  034%=      5-min Rain = 0
KFR1 271806Z 24011KT 28/10 A2982 RMK A01 T02770104  RH  034%=      5-min Rain = 0
KFR1 271807Z 24008G13KT 28/11 A2982 RMK A01 T02770111  RH  036%=      5-min Rain = 0
KFR1 271808Z 25011KT 28/10 A2982 RMK A01 T02770102  RH  033%=      5-min Rain = 0
KFR1 271809Z 25009KT 28/10 A2982 RMK A01 T02770103  RH  034%=      5-min Rain = 0
KFR1 271810Z 25011KT 28/10 A2982 RMK A01 T02780100  RH  033%=      5-min Rain = 0
KFR1 271811Z 25011KT 28/10 A2982 RMK A01 T02770102  RH  034%=      5-min Rain = 0
KFR1 271812Z 24010KT 28/11 A2982 RMK A01 T02780109  RH  035%=      5-min Rain = 0
KFR1 271813Z 22011KT 28/10 A2982 RMK A01 T02790097  RH  032%=      5-min Rain = 0
KFR1 271814Z 22009KT 28/10 A2982 RMK A01 T02790101  RH  033%=      5-min Rain = 0
KFR1 271815Z 23007KT 28/11 A2982 RMK A01 T02790105  RH  034%=      5-min Rain = 0
KFR1 271816Z 24009KT 28/11 A2982 RMK A01 T02810111  RH  035%=      5-min Rain = 0
KFR1 271817Z 24010KT 28/10 A2982 RMK A01 T02810097  RH  031%=      5-min Rain = 0
KFR1 271818Z 23007KT 28/11 A2981 RMK A01 T02800110  RH  035%=      5-min Rain = 0
KFR1 271819Z 24008KT 28/11 A2981 RMK A01 T02810106  RH  034%=      5-min Rain = 0
KFR1 271820Z 23007KT 28/10 A2981 RMK A01 T02810097  RH  032%=      5-min Rain = 0
KFR1 271821Z 23008KT 28/11 A2981 RMK A01 T02800111  RH  035%=      5-min Rain = 0
KFR1 271822Z 23008KT 28/11 A2981 RMK A01 T02810107  RH  034%=      5-min Rain = 0
KFR1 271823Z 24008KT 28/10 A2981 RMK A01 T02820095  RH  031%=      5-min Rain = 0
KFR1 271824Z 24007KT 28/10 A2981 RMK A01 T02800104  RH  033%=      5-min Rain = 0
KFR1 271825Z 24010KT 28/11 A2981 RMK A01 T02810105  RH  033%=      5-min Rain = 0
KFR1 271826Z 24008KT 28/09 A2981 RMK A01 T02800093  RH  031%=      5-min Rain = 0
KFR1 271827Z 24006KT 28/10 A2981 RMK A01 T02790104  RH  034%=      5-min Rain = 0
KFR1 271828Z 23007KT 28/11 A2981 RMK A01 T02790106  RH  034%=      5-min Rain = 0
KFR1 271829Z 22011KT 28/10 A2981 RMK A01 T02810100  RH  032%=      5-min Rain = 0
KFR1 271830Z 22009KT 28/08 A2981 RMK A01 T02820080  RH  028%=      5-min Rain = 0
KFR1 271831Z 22008KT 28/09 A2981 RMK A01 T02810087  RH  029%=      5-min Rain = 0
KFR1 271832Z 20009KT 28/10 A2981 RMK A01 T02820095  RH  031%=      5-min Rain = 0
KFR1 271833Z 21010KT 28/09 A2981 RMK A01 T02840094  RH  030%=      5-min Rain = 0
KFR1 271834Z 22009KT 29/10 A2981 RMK A01 T02850097  RH  031%=      5-min Rain = 0
KFR1 271835Z 23009KT 29/11 A2981 RMK A01 T02860107  RH  033%=      5-min Rain = 0
KFR1 271836Z 21010KT 29/09 A2981 RMK A01 T02870088  RH  029%=      5-min Rain = 0
KFR1 271837Z 21011KT 29/09 A298 RMK A01 T02860085  RH  028%=      5-min Rain = 0
KFR1 271838Z 20014KT 29/09 A298 RMK A01 T02850091  RH  030%=      5-min Rain = 0
KFR1 271839Z 22013KT 29/09 A298 RMK A01 T02860088  RH  029%=      5-min Rain = 0
KFR1 271840Z 22012KT 29/10 A298 RMK A01 T02850095  RH  031%=      5-min Rain = 0
KFR1 271841Z 23012KT 29/10 A298 RMK A01 T02850095  RH  031%=      5-min Rain = 0
KFR1 271842Z 22013KT 28/09 A298 RMK A01 T02840093  RH  030%=      5-min Rain = 0
KFR1 271843Z 24010KT 28/09 A298 RMK A01 T02830093  RH  030%=      5-min Rain = 0
KFR1 271844Z 23013KT 28/10 A298 RMK A01 T02830100  RH  032%=      5-min Rain = 0
KFR1 271845Z 22012KT 28/10 A298 RMK A01 T02830099  RH  032%=      5-min Rain = 0
KFR1 271846Z 22011KT 29/10 A298 RMK A01 T02850095  RH  031%=      5-min Rain = 0
KFR1 271847Z 22013KT 29/08 A298 RMK A01 T02850084  RH  028%=      5-min Rain = 0
KFR1 271848Z 21011KT 28/09 A298 RMK A01 T02840087  RH  029%=      5-min Rain = 0
KFR1 271849Z 20011KT 28/09 A298 RMK A01 T02840092  RH  030%=      5-min Rain = 0
KFR1 271850Z 21011KT 29/10 A298 RMK A01 T02850098  RH  031%=      5-min Rain = 0
KFR1 271851Z 22010KT 29/10 A298 RMK A01 T02870097  RH  031%=      5-min Rain = 0
KFR1 271852Z 19010KT 29/11 A298 RMK A01 T02870106  RH  032%=      5-min Rain = 0
KFR1 271853Z 20010KT 29/10 A298 RMK A01 T02880099  RH  031%=      5-min Rain = 0
KFR1 271854Z 19014KT 29/09 A298 RMK A01 T02880094  RH  030%=      5-min Rain = 0
KFR1 271855Z 20013KT 29/09 A2979 RMK A01 T02870090  RH  029%=      5-min Rain = 0
KFR1 271856Z 20011KT 29/10 A298 RMK A01 T02860097  RH  031%=      5-min Rain = 0
KFR1 271857Z 20009KT 29/10 A298 RMK A01 T02860103  RH  032%=      5-min Rain = 0
KFR1 271858Z 20012KT 29/10 A2979 RMK A01 T02870104  RH  032%=      5-min Rain = 0
KFR1 271859Z 21013KT 29/10 A2979 RMK A01 T02880095  RH  030%=      5-min Rain = 0
KFR1 271900Z 20011KT 29/09 A2979 RMK A01 T02870089  RH  029%=      5-min Rain = 0
KFR1 271901Z 21012KT 29/10 A2979 RMK A01 T02850099  RH  031%=      5-min Rain = 0
KFR1 271902Z 23013KT 29/10 A2979 RMK A01 T02870103  RH  032%=      5-min Rain = 0
KFR1 271903Z 22010KT 29/11 A2979 RMK A01 T02880105  RH  032%=      5-min Rain = 0
KFR1 271904Z 23009KT 29/10 A2979 RMK A01 T02870095  RH  030%=      5-min Rain = 0
KFR1 271905Z 22009KT 29/10 A2979 RMK A01 T02870099  RH  031%=      5-min Rain = 0
KFR1 271906Z 20009KT 29/10 A2979 RMK A01 T02870101  RH  031%=      5-min Rain = 0
KFR1 271907Z 20008KT 29/10 A2979 RMK A01 T02880097  RH  030%=      5-min Rain = 0
KFR1 271908Z 21009KT 29/10 A2979 RMK A01 T02880097  RH  031%=      5-min Rain = 0
KFR1 271909Z 21012KT 29/10 A2979 RMK A01 T02880100  RH  031%=      5-min Rain = 0
KFR1 271910Z 22015KT 29/08 A2979 RMK A01 T02890081  RH  027%=      5-min Rain = 0
KFR1 271911Z 22013KT 29/09 A2979 RMK A01 T02890091  RH  029%=      5-min Rain = 0
KFR1 271912Z 21010G15KT 29/09 A2979 RMK A01 T02890093  RH  029%=      5-min Rain = 0
KFR1 271913Z 21015G22KT 29/09 A2979 RMK A01 T02910089  RH  028%=      5-min Rain = 0
KFR1 271914Z 21015KT 29/07 A2978 RMK A01 T02920069  RH  025%=      5-min Rain = 0
KFR1 271915Z 21016KT 29/07 A2978 RMK A01 T02910073  RH  025%=      5-min Rain = 0
KFR1 271916Z 22016KT 29/07 A2979 RMK A01 T02910069  RH  025%=      5-min Rain = 0
KFR1 271917Z 22016KT 29/07 A2978 RMK A01 T02900074  RH  026%=      5-min Rain = 0
KFR1 271918Z 22014KT 29/07 A2979 RMK A01 T02900068  RH  025%=      5-min Rain = 0
KFR1 271919Z 21010KT 29/09 A2979 RMK A01 T02900085  RH  028%=      5-min Rain = 0
KFR1 271920Z 19011KT 29/09 A2979 RMK A01 T02920094  RH  029%=      5-min Rain = 0
KFR1 271921Z 21010KT 29/09 A2978 RMK A01 T02930089  RH  028%=      5-min Rain = 0
KFR1 271922Z 21015KT 29/09 A2978 RMK A01 T02920085  RH  027%=      5-min Rain = 0
KFR1 271923Z 21015KT 29/08 A2978 RMK A01 T02920078  RH  026%=      5-min Rain = 0
KFR1 271924Z 21016G22KT 29/08 A2978 RMK A01 T02920080  RH  026%=      5-min Rain = 0
KFR1 271925Z 22015KT 29/08 A2978 RMK A01 T02920080  RH  026%=      5-min Rain = 0
KFR1 271926Z 22012KT 29/08 A2978 RMK A01 T02920078  RH  026%=      5-min Rain = 0
KFR1 271927Z 21011KT 29/08 A2978 RMK A01 T02910082  RH  027%=      5-min Rain = 0
KFR1 271928Z 22014KT 29/09 A2978 RMK A01 T02910087  RH  028%=      5-min Rain = 0
KFR1 271929Z 22012KT 29/09 A2978 RMK A01 T02920091  RH  029%=      5-min Rain = 0
KFR1 271930Z 22015KT 29/08 A2978 RMK A01 T02920080  RH  027%=      5-min Rain = 0
KFR1 271931Z 21014KT 29/08 A2978 RMK A01 T02920081  RH  027%=      5-min Rain = 0
KFR1 271932Z 20015KT 29/08 A2978 RMK A01 T02920081  RH  027%=      5-min Rain = 0
KFR1 271933Z 21015G20KT 29/08 A2977 RMK A01 T02920076  RH  026%=      5-min Rain = 0
KFR1 271934Z 21012G17KT 29/09 A2978 RMK A01 T02930085  RH  027%=      5-min Rain = 0
KFR1 271935Z 21015KT 29/08 A2978 RMK A01 T02930076  RH  026%=      5-min Rain = 0
KFR1 271936Z 20012KT 29/08 A2978 RMK A01 T02930079  RH  026%=      5-min Rain = 0
KFR1 271937Z 21013KT 29/09 A2978 RMK A01 T02920089  RH  028%=      5-min Rain = 0
KFR1 271938Z 21016KT 29/08 A2977 RMK A01 T02930076  RH  026%=      5-min Rain = 0
KFR1 271939Z 22015KT 29/08 A2977 RMK A01 T02920078  RH  026%=      5-min Rain = 0
KFR1 271940Z 22016KT 29/08 A2977 RMK A01 T02910082  RH  027%=      5-min Rain = 0
KFR1 271941Z 22014KT 29/08 A2977 RMK A01 T02900077  RH  026%=      5-min Rain = 0
KFR1 271942Z 22015KT 29/08 A2977 RMK A01 T02900084  RH  027%=      5-min Rain = 0
KFR1 271943Z 22014KT 29/08 A2977 RMK A01 T02900083  RH  027%=      5-min Rain = 0
KFR1 271944Z 21013KT 29/09 A2977 RMK A01 T02910094  RH  029%=      5-min Rain = 0
KFR1 271945Z 20014KT 29/08 A2977 RMK A01 T02930081  RH  027%=      5-min Rain = 0
KFR1 271946Z 20014KT 29/09 A2977 RMK A01 T02930086  RH  027%=      5-min Rain = 0
KFR1 271947Z 22011KT 29/10 A2977 RMK A01 T02930095  RH  029%=      5-min Rain = 0
KFR1 271948Z 21009KT 29/09 A2977 RMK A01 T02930087  RH  027%=      5-min Rain = 0
KFR1 271949Z 21008KT 29/10 A2977 RMK A01 T02930100  RH  030%=      5-min Rain = 0
KFR1 271950Z 21009KT 29/10 A2977 RMK A01 T02940103  RH  030%=      5-min Rain = 0
KFR1 271951Z 22010KT 30/10 A2977 RMK A01 T02960100  RH  030%=      5-min Rain = 0
KFR1 271952Z 21011KT 30/10 A2977 RMK A01 T02960098  RH  029%=      5-min Rain = 0
KFR1 271953Z 21012G17KT 30/10 A2977 RMK A01 T02960095  RH  029%=      5-min Rain = 0
KFR1 271954Z 22014KT 30/09 A2977 RMK A01 T02950089  RH  028%=      5-min Rain = 0
KFR1 271955Z 21012KT 29/08 A2977 RMK A01 T02940080  RH  026%=      5-min Rain = 0
KFR1 271956Z 19013KT 29/09 A2976 RMK A01 T02920087  RH  028%=      5-min Rain = 0
KFR1 271957Z 19013KT 29/09 A2976 RMK A01 T02920086  RH  028%=      5-min Rain = 0
KFR1 271958Z 21012KT 29/10 A2976 RMK A01 T02920095  RH  029%=      5-min Rain = 0
KFR1 271959Z 21011KT 29/10 A2976 RMK A01 T02940095  RH  029%=      5-min Rain = 0
KFR1 272000Z 22011KT 30/08 A2976 RMK A01 T02950083  RH  027%=      5-min Rain = 0
KFR1 272001Z 22013KT 29/09 A2976 RMK A01 T02940089  RH  028%=      5-min Rain = 0
KFR1 272002Z 21014KT 29/09 A2976 RMK A01 T02940086  RH  027%=      5-min Rain = 0
KFR1 272003Z 21014G19KT 29/09 A2976 RMK A01 T02940091  RH  028%=      5-min Rain = 0
KFR1 272004Z 22013KT 30/09 A2976 RMK A01 T02950089  RH  028%=      5-min Rain = 0
KFR1 272005Z 21013G19KT 29/10 A2976 RMK A01 T02940095  RH  029%=      5-min Rain = 0
KFR1 272006Z 21017KT 30/08 A2976 RMK A01 T02950083  RH  027%=      5-min Rain = 0
KFR1 272007Z 21016KT 30/08 A2976 RMK A01 T02950083  RH  026%=      5-min Rain = 0
KFR1 272008Z 21017KT 30/08 A2976 RMK A01 T02950081  RH  026%=      5-min Rain = 0
KFR1 272009Z 20018KT 30/08 A2976 RMK A01 T02950078  RH  026%=      5-min Rain = 0
KFR1 272010Z 21015KT 30/08 A2976 RMK A01 T02950082  RH  026%=      5-min Rain = 0
KFR1 272011Z 21013KT 30/09 A2976 RMK A01 T02950085  RH  027%=      5-min Rain = 0
KFR1 272012Z 21016KT 30/09 A2976 RMK A01 T02950088  RH  027%=      5-min Rain = 0
KFR1 272013Z 22017KT 30/09 A2976 RMK A01 T02950088  RH  027%=      5-min Rain = 0
KFR1 272014Z 21015KT 30/09 A2976 RMK A01 T02960088  RH  027%=      5-min Rain = 0
KFR1 272015Z 21013KT 30/09 A2976 RMK A01 T02950091  RH  028%=      5-min Rain = 0
KFR1 272016Z 22016G21KT 30/09 A2975 RMK A01 T02960094  RH  028%=      5-min Rain = 0
KFR1 272017Z 21015KT 30/09 A2975 RMK A01 T02960085  RH  027%=      5-min Rain = 0
KFR1 272018Z 21015KT 30/09 A2975 RMK A01 T02950090  RH  028%=      5-min Rain = 0
KFR1 272019Z 19014KT 30/10 A2975 RMK A01 T02960098  RH  029%=      5-min Rain = 0
KFR1 272020Z 19013KT 30/09 A2975 RMK A01 T02960091  RH  028%=      5-min Rain = 0
KFR1 272021Z 20014G20KT 30/10 A2975 RMK A01 T02960098  RH  029%=      5-min Rain = 0
KFR1 272022Z 20015KT 30/09 A2975 RMK A01 T02970094  RH  028%=      5-min Rain = 0
KFR1 272023Z 20016G21KT 30/10 A2975 RMK A01 T02970099  RH  029%=      5-min Rain = 0
KFR1 272024Z 20015KT 30/10 A2975 RMK A01 T02970097  RH  029%=      5-min Rain = 0
KFR1 272025Z 21015KT 30/09 A2975 RMK A01 T02980093  RH  028%=      5-min Rain = 0
KFR1 272026Z 20013G18KT 30/09 A2975 RMK A01 T02980087  RH  027%=      5-min Rain = 0
KFR1 272027Z 19014KT 30/09 A2975 RMK A01 T02970088  RH  027%=      5-min Rain = 0
KFR1 272028Z 21014KT 30/09 A2975 RMK A01 T02960093  RH  028%=      5-min Rain = 0
KFR1 272029Z 22011KT 30/10 A2975 RMK A01 T02960096  RH  029%=      5-min Rain = 0
KFR1 272030Z 21011KT 30/10 A2975 RMK A01 T02960101  RH  030%=      5-min Rain = 0
KFR1 272031Z 22011KT 30/11 A2975 RMK A01 T02980105  RH  030%=      5-min Rain = 0
KFR1 272032Z 21012KT 30/11 A2975 RMK A01 T02990105  RH  030%=      5-min Rain = 0
KFR1 272033Z 21011KT 30/10 A2975 RMK A01 T02990097  RH  029%=      5-min Rain = 0
KFR1 272034Z 20012G17KT 30/11 A2975 RMK A01 T02990106  RH  030%=      5-min Rain = 0
KFR1 272035Z 21015KT 30/09 A2974 RMK A01 T03000092  RH  027%=      5-min Rain = 0
KFR1 272036Z 20014G20KT 30/10 A2974 RMK A01 T03000096  RH  028%=      5-min Rain = 0
KFR1 272037Z 19016KT 30/09 A2974 RMK A01 T03010094  RH  028%=      5-min Rain = 0
KFR1 272038Z 20015KT 30/10 A2974 RMK A01 T03010095  RH  028%=      5-min Rain = 0
KFR1 272039Z 20015KT 30/09 A2974 RMK A01 T03010093  RH  028%=      5-min Rain = 0
KFR1 272040Z 21013KT 30/09 A2974 RMK A01 T03010090  RH  027%=      5-min Rain = 0
KFR1 272041Z 20012KT 30/10 A2974 RMK A01 T03000099  RH  029%=      5-min Rain = 0
KFR1 272042Z 19013KT 30/09 A2974 RMK A01 T03000086  RH  026%=      5-min Rain = 0
KFR1 272043Z 20009KT 30/10 A2974 RMK A01 T02990098  RH  029%=      5-min Rain = 0
KFR1 272044Z 19009KT 30/10 A2974 RMK A01 T03000104  RH  030%=      5-min Rain = 0
KFR1 272045Z 20010KT 30/11 A2974 RMK A01 T03020109  RH  030%=      5-min Rain = 0
KFR1 272046Z 19008KT 30/11 A2974 RMK A01 T03030106  RH  030%=      5-min Rain = 0
KFR1 272047Z 20009KT 30/11 A2974 RMK A01 T03030106  RH  030%=      5-min Rain = 0
KFR1 272048Z 19010G15KT 30/11 A2974 RMK A01 T03030109  RH  030%=      5-min Rain = 0
KFR1 272049Z 18016KT 30/10 A2974 RMK A01 T03030103  RH  029%=      5-min Rain = 0
KFR1 272050Z 18013KT 30/10 A2973 RMK A01 T03020098  RH  028%=      5-min Rain = 0
KFR1 272051Z 19014G19KT 30/10 A2973 RMK A01 T03010102  RH  029%=      5-min Rain = 0
KFR1 272052Z 19014KT 30/10 A2973 RMK A01 T03010101  RH  029%=      5-min Rain = 0
KFR1 272053Z 21012KT 30/10 A2973 RMK A01 T03010103  RH  029%=      5-min Rain = 0
KFR1 272054Z 22011KT 30/10 A2973 RMK A01 T03010102  RH  029%=      5-min Rain = 0
KFR1 272055Z 21013KT 30/10 A2973 RMK A01 T03010102  RH  029%=      5-min Rain = 0
KFR1 272056Z 21014KT 30/09 A2973 RMK A01 T03010093  RH  028%=      5-min Rain = 0
KFR1 272057Z 21014G19KT 30/10 A2973 RMK A01 T03000098  RH  029%=      5-min Rain = 0
KFR1 272058Z 21016KT 30/10 A2973 RMK A01 T03000095  RH  028%=      5-min Rain = 0
KFR1 272059Z 21016KT 30/09 A2973 RMK A01 T03000090  RH  027%=      5-min Rain = 0
KFR1 272100Z 22017G22KT 30/10 A2973 RMK A01 T03000095  RH  028%=      5-min Rain = 0
KFR1 272101Z 21017KT 30/09 A2973 RMK A01 T03000086  RH  026%=      5-min Rain = 0
KFR1 272102Z 20015KT 30/09 A2973 RMK A01 T03000094  RH  028%=      5-min Rain = 0
KFR1 272103Z 20015KT 30/09 A2973 RMK A01 T03000090  RH  027%=      5-min Rain = 0
KFR1 272104Z 21011KT 30/10 A2973 RMK A01 T03010096  RH  028%=      5-min Rain = 0
KFR1 272105Z 21014G21KT 30/10 A2973 RMK A01 T03020095  RH  028%=      5-min Rain = 0
KFR1 272106Z 22017G23KT 30/09 A2973 RMK A01 T03020086  RH  026%=      5-min Rain = 0
KFR1 272107Z 21014KT 30/10 A2973 RMK A01 T03020095  RH  028%=      5-min Rain = 0
KFR1 272108Z 21014KT 30/09 A2973 RMK A01 T03020088  RH  026%=      5-min Rain = 0
KFR1 272109Z 22015KT 30/08 A2973 RMK A01 T03010084  RH  026%=      5-min Rain = 0
KFR1 272110Z 22014KT 30/10 A2973 RMK A01 T03020095  RH  028%=      5-min Rain = 0
KFR1 272111Z 22018KT 30/08 A2972 RMK A01 T03020083  RH  025%=      5-min Rain = 0
KFR1 272112Z 23017KT 30/08 A2972 RMK A01 T03020079  RH  025%=      5-min Rain = 0
KFR1 272113Z 22014KT 30/09 A2972 RMK A01 T03010086  RH  026%=      5-min Rain = 0
KFR1 272114Z 22014KT 30/09 A2972 RMK A01 T03000088  RH  027%=      5-min Rain = 0
KFR1 272115Z 22016G21KT 30/09 A2972 RMK A01 T03010089  RH  027%=      5-min Rain = 0
KFR1 272116Z 21013KT 30/09 A2972 RMK A01 T03020092  RH  027%=      5-min Rain = 0
KFR1 272117Z 21017KT 30/09 A2972 RMK A01 T03020088  RH  026%=      5-min Rain = 0
KFR1 272118Z 21015G22KT 30/09 A2972 RMK A01 T03020089  RH  027%=      5-min Rain = 0
KFR1 272119Z 22020KT 30/08 A2972 RMK A01 T03020078  RH  025%=      5-min Rain = 0
KFR1 272120Z 21020KT 30/08 A2972 RMK A01 T03020077  RH  024%=      5-min Rain = 0
KFR1 272121Z 21017G22KT 30/08 A2972 RMK A01 T03010076  RH  024%=      5-min Rain = 0
KFR1 272122Z 21019KT 30/08 A2972 RMK A01 T03010076  RH  024%=      5-min Rain = 0
KFR1 272123Z 21019KT 30/08 A2972 RMK A01 T03010076  RH  024%=      5-min Rain = 0
KFR1 272124Z 20019G24KT 30/08 A2972 RMK A01 T03010076  RH  024%=      5-min Rain = 0
KFR1 272125Z 20013KT 30/09 A2972 RMK A01 T03010085  RH  026%=      5-min Rain = 0
KFR1 272126Z 20013G18KT 30/09 A2972 RMK A01 T03020087  RH  026%=      5-min Rain = 0
KFR1 272127Z 19017KT 30/10 A2972 RMK A01 T03020095  RH  028%=      5-min Rain = 0
KFR1 272128Z 20016KT 30/09 A2971 RMK A01 T03030090  RH  027%=      5-min Rain = 0
KFR1 272129Z 20015KT 30/09 A2971 RMK A01 T03040094  RH  027%=      5-min Rain = 0
KFR1 272130Z 20016G21KT 31/09 A2971 RMK A01 T03050085  RH  025%=      5-min Rain = 0
KFR1 272131Z 21016G22KT 31/09 A2971 RMK A01 T03050089  RH  026%=      5-min Rain = 0
KFR1 272132Z 20013G19KT 31/09 A2971 RMK A01 T03050088  RH  026%=      5-min Rain = 0
KFR1 272133Z 20016KT 31/10 A2971 RMK A01 T03050096  RH  027%=      5-min Rain = 0
KFR1 272134Z 20016KT 31/09 A2971 RMK A01 T03050089  RH  026%=      5-min Rain = 0
KFR1 272135Z 20013G19KT 30/10 A2971 RMK A01 T03040097  RH  028%=      5-min Rain = 0
KFR1 272136Z 20017KT 30/10 A2971 RMK A01 T03040095  RH  027%=      5-min Rain = 0
KFR1 272137Z 20012KT 30/10 A2971 RMK A01 T03040096  RH  028%=      5-min Rain = 0
KFR1 272138Z 20018G25KT 30/09 A2971 RMK A01 T03040094  RH  027%=      5-min Rain = 0
KFR1 272139Z 19016KT 30/09 A2971 RMK A01 T03030088  RH  026%=      5-min Rain = 0
KFR1 272140Z 19014KT 30/10 A2971 RMK A01 T03020100  RH  029%=      5-min Rain = 0
KFR1 272141Z 19016G21KT 30/10 A2971 RMK A01 T03020097  RH  028%=      5-min Rain = 0
KFR1 272142Z 20018KT 30/09 A2971 RMK A01 T03020093  RH  027%=      5-min Rain = 0
KFR1 272143Z 21019KT 30/09 A2971 RMK A01 T03020091  RH  027%=      5-min Rain = 0
KFR1 272144Z 20017G22KT 30/09 A297 RMK A01 T03020087  RH  026%=      5-min Rain = 0
KFR1 272145Z 21016KT 30/09 A297 RMK A01 T03020094  RH  027%=      5-min Rain = 0
KFR1 272146Z 21018KT 30/08 A297 RMK A01 T03030084  RH  026%=      5-min Rain = 0
KFR1 272147Z 21018KT 30/09 A297 RMK A01 T03030086  RH  026%=      5-min Rain = 0
KFR1 272148Z 20015KT 30/09 A297 RMK A01 T03030089  RH  026%=      5-min Rain = 0
KFR1 272149Z 20013G21KT 30/10 A2971 RMK A01 T03030099  RH  028%=      5-min Rain = 0
KFR1 272150Z 20015KT 30/10 A297 RMK A01 T03040097  RH  028%=      5-min Rain = 0
KFR1 272151Z 19018KT 30/10 A297 RMK A01 T03040100  RH  028%=      5-min Rain = 0
KFR1 272152Z 19014G21KT 30/10 A297 RMK A01 T03040097  RH  028%=      5-min Rain = 0
KFR1 272153Z 19019KT 30/10 A297 RMK A01 T03030095  RH  027%=      5-min Rain = 0
KFR1 272154Z 19015KT 30/10 A297 RMK A01 T03030098  RH  028%=      5-min Rain = 0
KFR1 272155Z 19015G23KT 30/11 A297 RMK A01 T03030107  RH  030%=      5-min Rain = 0
KFR1 272156Z 18013G18KT 30/11 A297 RMK A01 T03030106  RH  030%=      5-min Rain = 0
KFR1 272157Z 19012G18KT 30/11 A297 RMK A01 T03040113  RH  031%=      5-min Rain = 0
KFR1 272158Z 19017KT 31/11 A297 RMK A01 T03050105  RH  029%=      5-min Rain = 0
KFR1 272159Z 19018G23KT 30/10 A297 RMK A01 T03040097  RH  028%=      5-min Rain = 0
KFR1 272200Z 19016KT 30/10 A297 RMK A01 T03030104  RH  029%=      5-min Rain = 0
KFR1 272201Z 20013KT 30/11 A297 RMK A01 T03030109  RH  030%=      5-min Rain = 0
KFR1 272202Z 19015KT 30/11 A297 RMK A01 T03040109  RH  030%=      5-min Rain = 0
KFR1 272203Z 20017KT 30/11 A297 RMK A01 T03040105  RH  029%=      5-min Rain = 0
KFR1 272204Z 20017G22KT 30/10 A2969 RMK A01 T03040097  RH  028%=      5-min Rain = 0
KFR1 272205Z 19018KT 30/10 A2969 RMK A01 T03040099  RH  028%=      5-min Rain = 0
KFR1 272206Z 19019KT 30/10 A2969 RMK A01 T03040095  RH  027%=      5-min Rain = 0
KFR1 272207Z 19016KT 30/10 A2969 RMK A01 T03040100  RH  028%=      5-min Rain = 0
KFR1 272208Z 19016KT 30/09 A2969 RMK A01 T03040093  RH  027%=      5-min Rain = 0
KFR1 272209Z 20016G22KT 30/10 A2969 RMK A01 T03040098  RH  028%=      5-min Rain = 0
KFR1 272210Z 20016KT 30/09 A2969 RMK A01 T03040090  RH  026%=      5-min Rain = 0
KFR1 272211Z 18014KT 30/10 A2969 RMK A01 T03040096  RH  028%=      5-min Rain = 0
KFR1 272212Z 18015KT 30/10 A2969 RMK A01 T03040097  RH  028%=      5-min Rain = 0
KFR1 272213Z 18016KT 30/09 A2969 RMK A01 T03040093  RH  027%=      5-min Rain = 0
KFR1 272214Z 19015KT 30/10 A2969 RMK A01 T03040097  RH  028%=      5-min Rain = 0
KFR1 272215Z 18013KT 30/11 A2969 RMK A01 T03040105  RH  029%=      5-min Rain = 0
KFR1 272216Z 18014G20KT 30/11 A2969 RMK A01 T03040106  RH  029%=      5-min Rain = 0
KFR1 272217Z 18019KT 31/10 A2969 RMK A01 T03050096  RH  027%=      5-min Rain = 0
KFR1 272218Z 18015KT 30/10 A2969 RMK A01 T03040097  RH  028%=      5-min Rain = 0
KFR1 272219Z 19014KT 30/10 A2969 RMK A01 T03040101  RH  029%=      5-min Rain = 0
KFR1 272220Z 19013KT 30/10 A2969 RMK A01 T03040101  RH  029%=      5-min Rain = 0
KFR1 272221Z 18015KT 30/10 A2969 RMK A01 T03040100  RH  028%=      5-min Rain = 0
KFR1 272222Z 19011KT 30/11 A2968 RMK A01 T03040105  RH  029%=      5-min Rain = 0
KFR1 272223Z 19010KT 30/11 A2968 RMK A01 T03040113  RH  031%=      5-min Rain = 0
KFR1 272224Z 19010KT 31/11 A2968 RMK A01 T03050108  RH  030%=      5-min Rain = 0
KFR1 272225Z 18016KT 31/10 A2968 RMK A01 T03060096  RH  027%=      5-min Rain = 0
KFR1 272226Z 19017KT 31/09 A2968 RMK A01 T03050087  RH  026%=      5-min Rain = 0
KFR1 272227Z 19014G21KT 31/09 A2968 RMK A01 T03050091  RH  026%=      5-min Rain = 0
KFR1 272228Z 19018KT 31/09 A2968 RMK A01 T03050092  RH  027%=      5-min Rain = 0
KFR1 272229Z 19016KT 31/09 A2968 RMK A01 T03050091  RH  026%=      5-min Rain = 0
KFR1 272230Z 19014KT 31/09 A2968 RMK A01 T03050090  RH  026%=      5-min Rain = 0
KFR1 272231Z 19013G19KT 31/09 A2968 RMK A01 T03050093  RH  027%=      5-min Rain = 0
KFR1 272232Z 19013KT 31/10 A2968 RMK A01 T03050097  RH  028%=      5-min Rain = 0
KFR1 272233Z 19013KT 31/09 A2968 RMK A01 T03050085  RH  025%=      5-min Rain = 0
KFR1 272234Z 18012KT 31/09 A2968 RMK A01 T03060094  RH  027%=      5-min Rain = 0
KFR1 272235Z 19012KT 31/10 A2968 RMK A01 T03060096  RH  027%=      5-min Rain = 0
KFR1 272236Z 18010KT 31/10 A2968 RMK A01 T03060103  RH  028%=      5-min Rain = 0
KFR1 272237Z 18011KT 31/10 A2968 RMK A01 T03060099  RH  028%=      5-min Rain = 0
KFR1 272238Z 19012KT 31/10 A2968 RMK A01 T03070100  RH  028%=      5-min Rain = 0
KFR1 272239Z 18013KT 31/09 A2968 RMK A01 T03080091  RH  026%=      5-min Rain = 0
KFR1 272240Z 19013KT 31/09 A2967 RMK A01 T03080093  RH  026%=      5-min Rain = 0
KFR1 272241Z 19014KT 31/09 A2967 RMK A01 T03080091  RH  026%=      5-min Rain = 0
KFR1 272242Z 21020G25KT 31/08 A2967 RMK A01 T03080076  RH  024%=      5-min Rain = 0
KFR1 272243Z 21018KT 31/06 A2967 RMK A01 T03100056  RH  020%=      5-min Rain = 0
KFR1 272244Z 21017KT 31/06 A2967 RMK A01 T03100059  RH  021%=      5-min Rain = 0
KFR1 272245Z 21017KT 31/06 A2967 RMK A01 T03110058  RH  020%=      5-min Rain = 0
KFR1 272246Z 21017KT 31/06 A2967 RMK A01 T03100060  RH  021%=      5-min Rain = 0
KFR1 272247Z 21016G21KT 31/06 A2967 RMK A01 T03110059  RH  021%=      5-min Rain = 0
KFR1 272248Z 21021G26KT 31/05 A2966 RMK A01 T03110048  RH  019%=      5-min Rain = 0
KFR1 272249Z 21018G23KT 31/04 A2966 RMK A01 T03110043  RH  018%=      5-min Rain = 0
KFR1 272250Z 21016G21KT 31/05 A2967 RMK A01 T03120048  RH  019%=      5-min Rain = 0
KFR1 272251Z 21018G24KT 31/05 A2967 RMK A01 T03110053  RH  020%=      5-min Rain = 0
KFR1 272252Z 20015KT 31/06 A2967 RMK A01 T03120055  RH  020%=      5-min Rain = 0
KFR1 272253Z 20015G20KT 31/06 A2966 RMK A01 T03110060  RH  021%=      5-min Rain = 0
KFR1 272254Z 20019G25KT 31/05 A2966 RMK A01 T03110047  RH  019%=      5-min Rain = 0
KFR1 272255Z 20018G26KT 31/05 A2966 RMK A01 T03110054  RH  020%=      5-min Rain = 0
KFR1 272256Z 21021KT 31/05 A2966 RMK A01 T03110047  RH  019%=      5-min Rain = 0
KFR1 272257Z 21019KT 31/04 A2966 RMK A01 T03110039  RH  018%=      5-min Rain = 0
KFR1 272258Z 21017KT 31/05 A2966 RMK A01 T03110047  RH  019%=      5-min Rain = 0
KFR1 272259Z 20013G18KT 31/06 A2966 RMK A01 T03110062  RH  021%=      5-min Rain = 0
KFR1 272300Z 20014KT 31/07 A2966 RMK A01 T03110067  RH  022%=      5-min Rain = 0
KFR1 272301Z 21017KT 31/06 A2966 RMK A01 T03110057  RH  020%=      5-min Rain = 0
KFR1 272302Z 20016G25KT 31/07 A2966 RMK A01 T03100065  RH  021%=      5-min Rain = 0
KFR1 272303Z 20019KT 31/06 A2966 RMK A01 T03100063  RH  021%=      5-min Rain = 0
KFR1 272304Z 20018KT 31/06 A2966 RMK A01 T03100060  RH  021%=      5-min Rain = 0
KFR1 272305Z 19022G27KT 31/06 A2966 RMK A01 T03100057  RH  020%=      5-min Rain = 0
KFR1 272306Z 20021KT 31/06 A2966 RMK A01 T03100055  RH  020%=      5-min Rain = 0
KFR1 272307Z 20021G28KT 31/05 A2966 RMK A01 T03090054  RH  020%=      5-min Rain = 0
KFR1 272308Z 20021KT 31/06 A2966 RMK A01 T03100059  RH  021%=      5-min Rain = 0
KFR1 272309Z 19016G21KT 31/06 A2966 RMK A01 T03090060  RH  021%=      5-min Rain = 0
KFR1 272310Z 20017KT 31/07 A2966 RMK A01 T03090065  RH  022%=      5-min Rain = 0
KFR1 272311Z 20016G21KT 31/07 A2966 RMK A01 T03090065  RH  022%=      5-min Rain = 0
KFR1 272312Z 19019G25KT 31/07 A2966 RMK A01 T03080069  RH  022%=      5-min Rain = 0
KFR1 272313Z 20018G25KT 31/07 A2966 RMK A01 T03080068  RH  022%=      5-min Rain = 0
KFR1 272314Z 20018KT 31/07 A2966 RMK A01 T03080070  RH  023%=      5-min Rain = 0
KFR1 272315Z 19020G26KT 31/07 A2966 RMK A01 T03070068  RH  022%=      5-min Rain = 0
KFR1 272316Z 19021KT 31/07 A2966 RMK A01 T03070070  RH  023%=      5-min Rain = 0
KFR1 272317Z 20018KT 31/08 A2966 RMK A01 T03060075  RH  024%=      5-min Rain = 0
KFR1 272318Z 19016G21KT 31/08 A2966 RMK A01 T03060078  RH  024%=      5-min Rain = 0
KFR1 272319Z 20021KT 31/07 A2966 RMK A01 T03060073  RH  023%=      5-min Rain = 0
KFR1 272320Z 20017G22KT 31/07 A2966 RMK A01 T03060066  RH  022%=      5-min Rain = 0
KFR1 272321Z 19020KT 31/07 A2966 RMK A01 T03060068  RH  022%=      5-min Rain = 0
KFR1 272322Z 20018KT 31/07 A2966 RMK A01 T03060069  RH  023%=      5-min Rain = 0
KFR1 272323Z 19019KT 31/07 A2966 RMK A01 T03060069  RH  023%=      5-min Rain = 0
KFR1 272324Z 19020G26KT 31/07 A2965 RMK A01 T03060067  RH  022%=      5-min Rain = 0
KFR1 272325Z 19021KT 31/07 A2965 RMK A01 T03060066  RH  022%=      5-min Rain = 0
KFR1 272326Z 19019G24KT 31/07 A2965 RMK A01 T03060066  RH  022%=      5-min Rain = 0
KFR1 272327Z 20019G26KT 31/07 A2965 RMK A01 T03060070  RH  023%=      5-min Rain = 0
KFR1 272328Z 20020G25KT 31/07 A2965 RMK A01 T03060065  RH  022%=      5-min Rain = 0
KFR1 272329Z 20019G25KT 31/07 A2965 RMK A01 T03060067  RH  022%=      5-min Rain = 0
KFR1 272330Z 19020KT 31/07 A2965 RMK A01 T03060065  RH  022%=      5-min Rain = 0
KFR1 272331Z 20019G24KT 31/07 A2965 RMK A01 T03060070  RH  023%=      5-min Rain = 0
KFR1 272332Z 19022KT 31/06 A2965 RMK A01 T03060064  RH  022%=      5-min Rain = 0
KFR1 272333Z 20022G29KT 31/05 A2965 RMK A01 T03060054  RH  020%=      5-min Rain = 0
KFR1 272334Z 20016G21KT 31/06 A2965 RMK A01 T03060061  RH  021%=      5-min Rain = 0
KFR1 272335Z 20016G22KT 31/07 A2965 RMK A01 T03060068  RH  022%=      5-min Rain = 0
KFR1 272336Z 20018G24KT 31/06 A2965 RMK A01 T03060064  RH  022%=      5-min Rain = 0
KFR1 272337Z 20017KT 31/06 A2965 RMK A01 T03050060  RH  021%=      5-min Rain = 0
KFR1 272338Z 20015KT 31/06 A2965 RMK A01 T03050062  RH  022%=      5-min Rain = 0
KFR1 272339Z 20020G26KT 31/06 A2965 RMK A01 T03060064  RH  022%=      5-min Rain = 0
KFR1 272340Z 19018KT 31/06 A2965 RMK A01 T03050059  RH  021%=      5-min Rain = 0
KFR1 272341Z 19018KT 31/06 A2965 RMK A01 T03050063  RH  022%=      5-min Rain = 0
KFR1 272342Z 20020G25KT 31/06 A2965 RMK A01 T03050059  RH  021%=      5-min Rain = 0
KFR1 272343Z 20017G22KT 31/06 A2965 RMK A01 T03050057  RH  021%=      5-min Rain = 0
KFR1 272344Z 19016G21KT 31/06 A2965 RMK A01 T03050063  RH  022%=      5-min Rain = 0
KFR1 272345Z 19017KT 30/06 A2965 RMK A01 T03040064  RH  022%=      5-min Rain = 0
KFR1 272346Z 19016KT 30/07 A2965 RMK A01 T03040067  RH  023%=      5-min Rain = 0
KFR1 272347Z 19014KT 30/07 A2965 RMK A01 T03030068  RH  023%=      5-min Rain = 0
KFR1 272348Z 19015KT 30/07 A2965 RMK A01 T03030071  RH  023%=      5-min Rain = 0
KFR1 272349Z 19017KT 30/07 A2965 RMK A01 T03030065  RH  022%=      5-min Rain = 0
KFR1 272350Z 20016G22KT 30/07 A2965 RMK A01 T03030065  RH  022%=      5-min Rain = 0
KFR1 272351Z 20018KT 30/06 A2965 RMK A01 T03030063  RH  022%=      5-min Rain = 0
KFR1 272352Z 19019KT 30/06 A2965 RMK A01 T03030058  RH  021%=      5-min Rain = 0
KFR1 272353Z 20021KT 30/05 A2965 RMK A01 T03030054  RH  021%=      5-min Rain = 0
KFR1 272354Z 20018KT 30/05 A2965 RMK A01 T03040054  RH  021%=      5-min Rain = 0
KFR1 272355Z 19017KT 30/06 A2965 RMK A01 T03040057  RH  021%=      5-min Rain = 0
KFR1 272356Z 19016KT 30/06 A2965 RMK A01 T03030059  RH  021%=      5-min Rain = 0
KFR1 272357Z 19017G22KT 30/06 A2965 RMK A01 T03030060  RH  022%=      5-min Rain = 0
KFR1 272358Z 20017G22KT 30/06 A2965 RMK A01 T03020062  RH  022%=      5-min Rain = 0
KFR1 272359Z 19015KT 30/06 A2965 RMK A01 T03020063  RH  022%=      5-min Rain = 0
KFR1 280000Z 20017G22KT 30/06 A2965 RMK A01 T03010064  RH  022%=      5-min Rain = 0
KFR1 280001Z 19018G24KT 30/06 A2965 RMK A01 T03020057  RH  021%=      5-min Rain = 0
KFR1 280002Z 20018KT 30/06 A2965 RMK A01 T03020057  RH  021%=      5-min Rain = 0
KFR1 280003Z 19017KT 30/06 A2965 RMK A01 T03020059  RH  022%=      5-min Rain = 0
KFR1 280004Z 20015G22KT 30/07 A2965 RMK A01 T03010066  RH  023%=      5-min Rain = 0
KFR1 280005Z 19014KT 30/06 A2965 RMK A01 T03010062  RH  022%=      5-min Rain = 0
KFR1 280006Z 20016KT 30/06 A2965 RMK A01 T03010062  RH  022%=      5-min Rain = 0
KFR1 280007Z 19017G23KT 30/06 A2964 RMK A01 T03000063  RH  022%=      5-min Rain = 0
KFR1 280008Z 19017KT 30/06 A2964 RMK A01 T03010060  RH  022%=      5-min Rain = 0
KFR1 280009Z 20016G21KT 30/06 A2964 RMK A01 T03000059  RH  022%=      5-min Rain = 0
KFR1 280010Z 20016G22KT 30/06 A2964 RMK A01 T03010060  RH  022%=      5-min Rain = 0
KFR1 280011Z 19017G22KT 30/06 A2964 RMK A01 T03010058  RH  022%=      5-min Rain = 0
KFR1 280012Z 19016G23KT 30/06 A2964 RMK A01 T03000061  RH  022%=      5-min Rain = 0
KFR1 280013Z 19016KT 30/06 A2964 RMK A01 T03000063  RH  023%=      5-min Rain = 0
KFR1 280014Z 19014KT 30/07 A2964 RMK A01 T02990067  RH  023%=      5-min Rain = 0
KFR1 280015Z 19017G22KT 30/06 A2964 RMK A01 T02980062  RH  023%=      5-min Rain = 0
KFR1 280016Z 19017KT 30/07 A2964 RMK A01 T02980065  RH  023%=      5-min Rain = 0
KFR1 280017Z 19017KT 30/06 A2964 RMK A01 T02980063  RH  023%=      5-min Rain = 0
KFR1 280018Z 20017G24KT 30/06 A2964 RMK A01 T02980061  RH  022%=      5-min Rain = 0
KFR1 280019Z 20017G22KT 30/06 A2964 RMK A01 T02980061  RH  023%=      5-min Rain = 0
KFR1 280020Z 19018KT 30/06 A2964 RMK A01 T02980057  RH  022%=      5-min Rain = 0
KFR1 280021Z 20016G22KT 30/06 A2964 RMK A01 T02980059  RH  022%=      5-min Rain = 0
KFR1 280022Z 20016KT 30/06 A2964 RMK A01 T02980063  RH  023%=      5-min Rain = 0
KFR1 280023Z 19018KT 30/06 A2964 RMK A01 T02970059  RH  022%=      5-min Rain = 0
KFR1 280024Z 19014KT 30/06 A2964 RMK A01 T02970063  RH  023%=      5-min Rain = 0
KFR1 280025Z 19017KT 30/06 A2964 RMK A01 T02960059  RH  022%=      5-min Rain = 0
KFR1 280026Z 19018G24KT 30/06 A2964 RMK A01 T02960055  RH  022%=      5-min Rain = 0
KFR1 280027Z 20016G23KT 30/06 A2964 RMK A01 T02960058  RH  022%=      5-min Rain = 0
KFR1 280028Z 19015KT 30/06 A2964 RMK A01 T02960059  RH  022%=      5-min Rain = 0
KFR1 280029Z 20014KT 30/06 A2964 RMK A01 T02960061  RH  023%=      5-min Rain = 0
KFR1 280030Z 19013G18KT 30/06 A2964 RMK A01 T02950062  RH  023%=      5-min Rain = 0
KFR1 280031Z 19015G20KT 29/07 A2964 RMK A01 T02940066  RH  024%=      5-min Rain = 0
KFR1 280032Z 19016KT 29/06 A2964 RMK A01 T02930063  RH  023%=      5-min Rain = 0
KFR1 280033Z 19016G22KT 29/06 A2964 RMK A01 T02930061  RH  023%=      5-min Rain = 0
KFR1 280034Z 19017KT 29/06 A2964 RMK A01 T02930063  RH  023%=      5-min Rain = 0
KFR1 280035Z 19015G20KT 29/06 A2964 RMK A01 T02930064  RH  024%=      5-min Rain = 0
KFR1 280036Z 19014KT 29/07 A2964 RMK A01 T02920068  RH  024%=      5-min Rain = 0
KFR1 280037Z 19016KT 29/06 A2964 RMK A01 T02910064  RH  024%=      5-min Rain = 0
KFR1 280038Z 19015KT 29/06 A2964 RMK A01 T02910063  RH  024%=      5-min Rain = 0
KFR1 280039Z 19015KT 29/07 A2964 RMK A01 T02910066  RH  024%=      5-min Rain = 0
KFR1 280040Z 19014KT 29/07 A2964 RMK A01 T02910067  RH  024%=      5-min Rain = 0
KFR1 280041Z 19013KT 29/07 A2964 RMK A01 T02900070  RH  025%=      5-min Rain = 0
KFR1 280042Z 19013KT 29/07 A2964 RMK A01 T02890071  RH  025%=      5-min Rain = 0
KFR1 280043Z 19011KT 29/08 A2964 RMK A01 T02880076  RH  026%=      5-min Rain = 0
KFR1 280044Z 19014KT 29/07 A2964 RMK A01 T02870074  RH  026%=      5-min Rain = 0
KFR1 280045Z 19012KT 29/08 A2964 RMK A01 T02860077  RH  027%=      5-min Rain = 0
KFR1 280046Z 18012G17KT 29/08 A2965 RMK A01 T02850078  RH  027%=      5-min Rain = 0
KFR1 280047Z 18012KT 28/08 A2965 RMK A01 T02840081  RH  028%=      5-min Rain = 0
KFR1 280048Z 17012KT 28/08 A2965 RMK A01 T02830083  RH  028%=      5-min Rain = 0
KFR1 280049Z 17013KT 28/09 A2965 RMK A01 T02820088  RH  030%=      5-min Rain = 0
KFR1 280050Z 17012KT 28/09 A2965 RMK A01 T02810090  RH  030%=      5-min Rain = 0
KFR1 280051Z 17012G17KT 28/09 A2965 RMK A01 T02790094  RH  031%=      5-min Rain = 0
KFR1 280052Z 17011KT 28/10 A2965 RMK A01 T02780095  RH  032%=      5-min Rain = 0
KFR1 280053Z 17011G16KT 28/10 A2965 RMK A01 T02770097  RH  032%=      5-min Rain = 0
KFR1 280054Z 17011KT 28/10 A2965 RMK A01 T02760100  RH  033%=      5-min Rain = 0
KFR1 280055Z 17011KT 28/10 A2965 RMK A01 T02760098  RH  033%=      5-min Rain = 0
KFR1 280056Z 17011KT 28/10 A2965 RMK A01 T02760101  RH  034%=      5-min Rain = 0
KFR1 280057Z 17012KT 28/10 A2965 RMK A01 T02750103  RH  034%=      5-min Rain = 0
KFR1 280058Z 17012KT 28/11 A2965 RMK A01 T02750106  RH  035%=      5-min Rain = 0
KFR1 280059Z 17011KT 27/11 A2965 RMK A01 T02740107  RH  035%=      5-min Rain = 0
KFR1 280100Z 17011KT 27/11 A2965 RMK A01 T02740109  RH  036%=      5-min Rain = 0
KFR1 280101Z 17013KT 27/11 A2965 RMK A01 T02740111  RH  036%=      5-min Rain = 0
KFR1 280102Z 17014KT 27/11 A2965 RMK A01 T02740112  RH  036%=      5-min Rain = 0
KFR1 280103Z 17013KT 27/11 A2965 RMK A01 T02740114  RH  037%=      5-min Rain = 0
KFR1 280104Z 17013KT 27/12 A2965 RMK A01 T02740117  RH  038%=      5-min Rain = 0
KFR1 280105Z 17011KT 27/12 A2965 RMK A01 T02730120  RH  039%=      5-min Rain = 0
KFR1 280106Z 17011G16KT 27/12 A2965 RMK A01 T02720122  RH  039%=      5-min Rain = 0
KFR1 280107Z 17011G16KT 27/12 A2965 RMK A01 T02710124  RH  040%=      5-min Rain = 0
KFR1 280108Z 17011G17KT 27/13 A2965 RMK A01 T02700126  RH  041%=      5-min Rain = 0
KFR1 280109Z 17013G19KT 27/13 A2965 RMK A01 T02690128  RH  041%=      5-min Rain = 0
KFR1 280110Z 16012KT 27/13 A2965 RMK A01 T02690130  RH  042%=      5-min Rain = 0
KFR1 280111Z 16013KT 27/13 A2965 RMK A01 T02700132  RH  043%=      5-min Rain = 0
KFR1 280112Z 17014KT 27/14 A2965 RMK A01 T02690135  RH  044%=      5-min Rain = 0
KFR1 280113Z 16014KT 27/14 A2965 RMK A01 T02690136  RH  044%=      5-min Rain = 0
KFR1 280114Z 16014KT 27/14 A2965 RMK A01 T02690138  RH  044%=      5-min Rain = 0
KFR1 280115Z 16013KT 27/14 A2965 RMK A01 T02690139  RH  045%=      5-min Rain = 0
KFR1 280116Z 17013KT 27/14 A2965 RMK A01 T02690142  RH  046%=      5-min Rain = 0
KFR1 280117Z 17014KT 27/14 A2965 RMK A01 T02680143  RH  046%=      5-min Rain = 0
KFR1 280118Z 16011KT 27/15 A2965 RMK A01 T02670145  RH  047%=      5-min Rain = 0
KFR1 280119Z 16012G20KT 27/15 A2965 RMK A01 T02660146  RH  047%=      5-min Rain = 0
KFR1 280120Z 16014KT 27/15 A2965 RMK A01 T02670147  RH  048%=      5-min Rain = 0
KFR1 280121Z 16012KT 27/15 A2965 RMK A01 T02660149  RH  048%=      5-min Rain = 0
KFR1 280122Z 16014KT 27/15 A2965 RMK A01 T02660151  RH  049%=      5-min Rain = 0
KFR1 280123Z 16013KT 27/15 A2965 RMK A01 T02660153  RH  050%=      5-min Rain = 0
KFR1 280124Z 16014G20KT 27/15 A2965 RMK A01 T02660154  RH  050%=      5-min Rain = 0
KFR1 280125Z 16016G21KT 27/16 A2965 RMK A01 T02660157  RH  051%=      5-min Rain = 0
KFR1 280126Z 17014G20KT 27/16 A2965 RMK A01 T02650159  RH  052%=      5-min Rain = 0
KFR1 280127Z 17015G20KT 27/16 A2965 RMK A01 T02660161  RH  053%=      5-min Rain = 0
KFR1 280128Z 16017KT 27/16 A2965 RMK A01 T02660162  RH  053%=      5-min Rain = 0
KFR1 280129Z 17017G23KT 27/16 A2965 RMK A01 T02660164  RH  054%=      5-min Rain = 0
KFR1 280130Z 16015KT 27/17 A2965 RMK A01 T02660166  RH  054%=      5-min Rain = 0
KFR1 280131Z 16015KT 27/17 A2965 RMK A01 T02670168  RH  055%=      5-min Rain = 0
KFR1 280132Z 16016G21KT 27/17 A2965 RMK A01 T02660169  RH  055%=      5-min Rain = 0
KFR1 280133Z 16015KT 27/17 A2965 RMK A01 T02660170  RH  056%=      5-min Rain = 0
KFR1 280134Z 16018KT 27/17 A2964 RMK A01 T02660171  RH  056%=      5-min Rain = 0
KFR1 280135Z 16017KT 27/17 A2965 RMK A01 T02660171  RH  056%=      5-min Rain = 0
KFR1 280136Z 16017G25KT 27/17 A2965 RMK A01 T02660172  RH  056%=      5-min Rain = 0
KFR1 280137Z 16017G22KT 27/17 A2965 RMK A01 T02670172  RH  056%=      5-min Rain = 0
KFR1 280138Z 17016KT 27/17 A2965 RMK A01 T02660173  RH  056%=      5-min Rain = 0
KFR1 280139Z 16019KT 27/17 A2965 RMK A01 T02660172  RH  057%=      5-min Rain = 0
KFR1 280140Z 16017G22KT 27/17 A2965 RMK A01 T02660173  RH  057%=      5-min Rain = 0
KFR1 280141Z 17015G20KT 27/17 A2965 RMK A01 T02650173  RH  057%=      5-min Rain = 0
KFR1 280142Z 17015KT 27/17 A2965 RMK A01 T02650173  RH  057%=      5-min Rain = 0
KFR1 280143Z 16016KT 26/17 A2965 RMK A01 T02640174  RH  057%=      5-min Rain = 0
KFR1 280144Z 16016G21KT 26/17 A2965 RMK A01 T02640174  RH  058%=      5-min Rain = 0
KFR1 280145Z 15012G17KT 26/17 A2965 RMK A01 T02630174  RH  058%=      5-min Rain = 0
KFR1 280146Z 16012G17KT 26/18 A2965 RMK A01 T02620175  RH  059%=      5-min Rain = 0
KFR1 280147Z 16011G16KT 26/18 A2965 RMK A01 T02610175  RH  059%=      5-min Rain = 0
KFR1 280148Z 16015KT 26/18 A2965 RMK A01 T02600176  RH  060%=      5-min Rain = 0
KFR1 280149Z 16010G17KT 26/18 A2965 RMK A01 T02590176  RH  060%=      5-min Rain = 0
KFR1 280150Z 16013G19KT 26/18 A2965 RMK A01 T02580175  RH  060%=      5-min Rain = 0
KFR1 280151Z 16013G19KT 26/18 A2965 RMK A01 T02580175  RH  060%=      5-min Rain = 0
KFR1 280152Z 16012G18KT 26/18 A2965 RMK A01 T02570176  RH  061%=      5-min Rain = 0
KFR1 280153Z 16014KT 26/18 A2965 RMK A01 T02570175  RH  061%=      5-min Rain = 0
KFR1 280154Z 16012KT 26/18 A2965 RMK A01 T02570175  RH  061%=      5-min Rain = 0
KFR1 280155Z 16012KT 26/18 A2965 RMK A01 T02560175  RH  061%=      5-min Rain = 0
KFR1 280156Z 16013G18KT 26/18 A2965 RMK A01 T02550176  RH  061%=      5-min Rain = 0
KFR1 280157Z 16013KT 26/18 A2965 RMK A01 T02550175  RH  062%=      5-min Rain = 0
KFR1 280158Z 16015G20KT 25/18 A2965 RMK A01 T02540176  RH  062%=      5-min Rain = 0
KFR1 280159Z 16014KT 25/18 A2965 RMK A01 T02530176  RH  062%=      5-min Rain = 0
KFR1 280200Z 16012KT 25/18 A2965 RMK A01 T02530176  RH  062%=      5-min Rain = 0
KFR1 280201Z 16012KT 25/18 A2965 RMK A01 T02520176  RH  063%=      5-min Rain = 0
KFR1 280202Z 16013KT 25/18 A2965 RMK A01 T02520176  RH  063%=      5-min Rain = 0
KFR1 280203Z 16012KT 25/18 A2965 RMK A01 T02520176  RH  063%=      5-min Rain = 0
KFR1 280204Z 16013KT 25/18 A2965 RMK A01 T02510176  RH  063%=      5-min Rain = 0
KFR1 280205Z 16012KT 25/18 A2965 RMK A01 T02500177  RH  064%=      5-min Rain = 0
KFR1 280206Z 16015KT 25/18 A2965 RMK A01 T02490176  RH  064%=      5-min Rain = 0
KFR1 280207Z 16012G19KT 25/18 A2965 RMK A01 T02500176  RH  064%=      5-min Rain = 0
KFR1 280208Z 16011KT 25/18 A2965 RMK A01 T02490176  RH  064%=      5-min Rain = 0
KFR1 280209Z 16013KT 25/18 A2965 RMK A01 T02490176  RH  064%=      5-min Rain = 0
KFR1 280210Z 16014KT 25/18 A2965 RMK A01 T02480175  RH  064%=      5-min Rain = 0
KFR1 280211Z 16012KT 25/18 A2965 RMK A01 T02480175  RH  064%=      5-min Rain = 0
KFR1 280212Z 16013G18KT 25/18 A2965 RMK A01 T02470175  RH  064%=      5-min Rain = 0
KFR1 280213Z 16012KT 25/17 A2965 RMK A01 T02470174  RH  064%=      5-min Rain = 0
KFR1 280214Z 16014G19KT 25/18 A2965 RMK A01 T02470175  RH  064%=      5-min Rain = 0
KFR1 280215Z 16011KT 25/17 A2965 RMK A01 T02460174  RH  064%=      5-min Rain = 0
KFR1 280216Z 16013KT 25/18 A2965 RMK A01 T02460175  RH  064%=      5-min Rain = 0
KFR1 280217Z 15012KT 25/18 A2965 RMK A01 T02450175  RH  065%=      5-min Rain = 0
KFR1 280218Z 16012KT 25/18 A2965 RMK A01 T02450175  RH  065%=      5-min Rain = 0
KFR1 280219Z 15009KT 24/18 A2965 RMK A01 T02440176  RH  066%=      5-min Rain = 0
KFR1 280220Z 16009G14KT 24/18 A2965 RMK A01 T02430177  RH  067%=      5-min Rain = 0
KFR1 280221Z 15011KT 24/18 A2965 RMK A01 T02420178  RH  067%=      5-min Rain = 0
KFR1 280222Z 16010G18KT 24/18 A2965 RMK A01 T02420178  RH  067%=      5-min Rain = 0
KFR1 280223Z 16013KT 24/18 A2965 RMK A01 T02410177  RH  067%=      5-min Rain = 0
KFR1 280224Z 16013G21KT 24/18 A2965 RMK A01 T02410177  RH  067%=      5-min Rain = 0
KFR1 280225Z 16013KT 24/18 A2965 RMK A01 T02410177  RH  067%=      5-min Rain = 0
KFR1 280226Z 16014KT 24/18 A2965 RMK A01 T02410176  RH  067%=      5-min Rain = 0
KFR1 280227Z 16012KT 24/18 A2965 RMK A01 T02400176  RH  067%=      5-min Rain = 0
KFR1 280228Z 16016KT 24/18 A2965 RMK A01 T02400175  RH  067%=      5-min Rain = 0
KFR1 280229Z 16010G15KT 24/17 A2965 RMK A01 T02400174  RH  067%=      5-min Rain = 0
KFR1 280230Z 16014KT 24/17 A2965 RMK A01 T02400174  RH  067%=      5-min Rain = 0
KFR1 280231Z 16017G22KT 24/17 A2965 RMK A01 T02400173  RH  066%=      5-min Rain = 0
KFR1 280232Z 16016G21KT 24/17 A2965 RMK A01 T02410172  RH  066%=      5-min Rain = 0
KFR1 280233Z 16014G19KT 24/17 A2965 RMK A01 T02420173  RH  065%=      5-min Rain = 0
KFR1 280234Z 16017G22KT 24/17 A2965 RMK A01 T02420173  RH  065%=      5-min Rain = 0
KFR1 280235Z 16018G23KT 24/17 A2965 RMK A01 T02430173  RH  065%=      5-min Rain = 0
KFR1 280236Z 16016G21KT 24/17 A2965 RMK A01 T02430174  RH  065%=      5-min Rain = 0
KFR1 280237Z 16016KT 24/18 A2965 RMK A01 T02430175  RH  066%=      5-min Rain = 0
KFR1 280238Z 16018KT 24/18 A2965 RMK A01 T02430176  RH  066%=      5-min Rain = 0
KFR1 280239Z 16016KT 24/18 A2965 RMK A01 T02430176  RH  066%=      5-min Rain = 0
KFR1 280240Z 16017KT 24/18 A2965 RMK A01 T02430176  RH  066%=      5-min Rain = 0
KFR1 280241Z 16014G23KT 24/18 A2965 RMK A01 T02430177  RH  067%=      5-min Rain = 0
KFR1 280242Z 16017G23KT 24/18 A2965 RMK A01 T02420177  RH  067%=      5-min Rain = 0
KFR1 280243Z 16018KT 24/18 A2965 RMK A01 T02430178  RH  067%=      5-min Rain = 0
KFR1 280244Z 16014KT 24/18 A2965 RMK A01 T02420178  RH  067%=      5-min Rain = 0
KFR1 280245Z 16016G23KT 24/18 A2965 RMK A01 T02420179  RH  068%=      5-min Rain = 0
KFR1 280246Z 15016G22KT 24/18 A2965 RMK A01 T02410179  RH  068%=      5-min Rain = 0
KFR1 280247Z 16016G22KT 24/18 A2965 RMK A01 T02410179  RH  068%=      5-min Rain = 0
KFR1 280248Z 15017KT 24/18 A2965 RMK A01 T02410179  RH  069%=      5-min Rain = 0
KFR1 280249Z 16016G23KT 24/18 A2965 RMK A01 T02410180  RH  069%=      5-min Rain = 0
KFR1 280250Z 16015KT 24/18 A2965 RMK A01 T02410180  RH  069%=      5-min Rain = 0
KFR1 280251Z 16017G23KT 24/18 A2965 RMK A01 T02410181  RH  069%=      5-min Rain = 0
KFR1 280252Z 15016G21KT 24/18 A2965 RMK A01 T02400181  RH  069%=      5-min Rain = 0
KFR1 280253Z 16015G22KT 24/18 A2965 RMK A01 T02400181  RH  069%=      5-min Rain = 0
KFR1 280254Z 16016G21KT 24/18 A2965 RMK A01 T02400181  RH  070%=      5-min Rain = 0
KFR1 280255Z 16016G23KT 24/18 A2965 RMK A01 T02390181  RH  070%=      5-min Rain = 0
KFR1 280256Z 16017G23KT 24/18 A2965 RMK A01 T02390181  RH  070%=      5-min Rain = 0
KFR1 280257Z 16018G25KT 24/18 A2965 RMK A01 T02400181  RH  070%=      5-min Rain = 0
KFR1 280258Z 16015G20KT 24/18 A2965 RMK A01 T02400182  RH  070%=      5-min Rain = 0
KFR1 280259Z 16018G24KT 24/18 A2965 RMK A01 T02390181  RH  070%=      5-min Rain = 0
KFR1 280300Z 16016KT 24/18 A2965 RMK A01 T02390181  RH  070%=      5-min Rain = 0
KFR1 280301Z 16016KT 24/18 A2965 RMK A01 T02390182  RH  070%=      5-min Rain = 0
KFR1 280302Z 16019G26KT 24/18 A2965 RMK A01 T02390182  RH  070%=      5-min Rain = 0
KFR1 280303Z 16015KT 24/18 A2965 RMK A01 T02390181  RH  070%=      5-min Rain = 0
KFR1 280304Z 16016G21KT 24/18 A2965 RMK A01 T02400181  RH  070%=      5-min Rain = 0
KFR1 280305Z 16014G19KT 24/18 A2965 RMK A01 T02390181  RH  070%=      5-min Rain = 0
KFR1 280306Z 16018G23KT 24/18 A2965 RMK A01 T02390181  RH  070%=      5-min Rain = 0
KFR1 280307Z 16017G23KT 24/18 A2965 RMK A01 T02390181  RH  070%=      5-min Rain = 0
KFR1 280308Z 16018KT 24/18 A2965 RMK A01 T02390181  RH  070%=      5-min Rain = 0
KFR1 280309Z 16014G22KT 24/18 A2965 RMK A01 T02400181  RH  070%=      5-min Rain = 0
KFR1 280310Z 16016KT 24/18 A2965 RMK A01 T02390181  RH  070%=      5-min Rain = 0
KFR1 280311Z 16019KT 24/18 A2965 RMK A01 T02390181  RH  070%=      5-min Rain = 0
KFR1 280312Z 16013G19KT 24/18 A2965 RMK A01 T02380181  RH  070%=      5-min Rain = 0
KFR1 280313Z 16015G20KT 24/18 A2965 RMK A01 T02380181  RH  070%=      5-min Rain = 0
KFR1 280314Z 16015G20KT 24/18 A2965 RMK A01 T02380181  RH  070%=      5-min Rain = 0
KFR1 280315Z 16016G25KT 24/18 A2965 RMK A01 T02380180  RH  070%=      5-min Rain = 0
KFR1 280316Z 16016G22KT 24/18 A2965 RMK A01 T02380181  RH  070%=      5-min Rain = 0
KFR1 280317Z 15017G22KT 24/18 A2965 RMK A01 T02380181  RH  070%=      5-min Rain = 0
KFR1 280318Z 16017G22KT 24/18 A2965 RMK A01 T02370180  RH  070%=      5-min Rain = 0
KFR1 280319Z 16015KT 24/18 A2965 RMK A01 T02370180  RH  070%=      5-min Rain = 0
KFR1 280320Z 16016G23KT 24/18 A2965 RMK A01 T02370180  RH  071%=      5-min Rain = 0
KFR1 280321Z 15015G21KT 24/18 A2965 RMK A01 T02370180  RH  071%=      5-min Rain = 0
KFR1 280322Z 15015G20KT 24/18 A2965 RMK A01 T02370180  RH  071%=      5-min Rain = 0
KFR1 280323Z 16017G22KT 24/18 A2965 RMK A01 T02370180  RH  070%=      5-min Rain = 0
KFR1 280324Z 16016G25KT 24/18 A2965 RMK A01 T02370180  RH  070%=      5-min Rain = 0
KFR1 280325Z 16013G19KT 24/18 A2965 RMK A01 T02370180  RH  071%=      5-min Rain = 0
KFR1 280326Z 16016KT 24/18 A2965 RMK A01 T02360180  RH  071%=      5-min Rain = 0
KFR1 280327Z 16014G22KT 24/18 A2965 RMK A01 T02360180  RH  071%=      5-min Rain = 0
KFR1 280328Z 16018G23KT 24/18 A2965 RMK A01 T02360180  RH  071%=      5-min Rain = 0
KFR1 280329Z 15016G25KT 24/18 A2965 RMK A01 T02360179  RH  071%=      5-min Rain = 0
KFR1 280330Z 16016KT 24/18 A2965 RMK A01 T02360180  RH  071%=      5-min Rain = 0
KFR1 280331Z 16017KT 24/18 A2965 RMK A01 T02360180  RH  071%=      5-min Rain = 0
KFR1 280332Z 16019G25KT 24/18 A2965 RMK A01 T02350179  RH  071%=      5-min Rain = 0
KFR1 280333Z 16015KT 24/18 A2966 RMK A01 T02360179  RH  070%=      5-min Rain = 0
KFR1 280334Z 16015G21KT 24/18 A2965 RMK A01 T02350179  RH  071%=      5-min Rain = 0
KFR1 280335Z 16018G24KT 24/18 A2965 RMK A01 T02350179  RH  071%=      5-min Rain = 0
KFR1 280336Z 16017G25KT 24/18 A2965 RMK A01 T02350179  RH  071%=      5-min Rain = 0
KFR1 280337Z 16015G21KT 24/18 A2965 RMK A01 T02350179  RH  071%=      5-min Rain = 0
KFR1 280338Z 16018KT 24/18 A2965 RMK A01 T02350179  RH  071%=      5-min Rain = 0
KFR1 280339Z 16018KT 23/18 A2965 RMK A01 T02340179  RH  071%=      5-min Rain = 0
KFR1 280340Z 16017G22KT 23/18 A2966 RMK A01 T02340179  RH  071%=      5-min Rain = 0
KFR1 280341Z 16017KT 23/18 A2965 RMK A01 T02340179  RH  071%=      5-min Rain = 0
KFR1 280342Z 16018G25KT 23/18 A2965 RMK A01 T02340179  RH  071%=      5-min Rain = 0
KFR1 280343Z 16017G24KT 23/18 A2966 RMK A01 T02340179  RH  071%=      5-min Rain = 0
KFR1 280344Z 16016G21KT 23/18 A2966 RMK A01 T02340179  RH  071%=      5-min Rain = 0
KFR1 280345Z 16017KT 23/18 A2965 RMK A01 T02330178  RH  071%=      5-min Rain = 0
KFR1 280346Z 15015KT 23/18 A2966 RMK A01 T02330179  RH  071%=      5-min Rain = 0
KFR1 280347Z 16019KT 23/18 A2965 RMK A01 T02330178  RH  071%=      5-min Rain = 0
KFR1 280348Z 16018KT 23/18 A2966 RMK A01 T02330178  RH  071%=      5-min Rain = 0
KFR1 280349Z 16019KT 23/18 A2966 RMK A01 T02330178  RH  071%=      5-min Rain = 0
KFR1 280350Z 16017G23KT 23/18 A2966 RMK A01 T02330178  RH  071%=      5-min Rain = 0
KFR1 280351Z 16017G22KT 23/18 A2966 RMK A01 T02330179  RH  071%=      5-min Rain = 0
KFR1 280352Z 16020KT 23/18 A2966 RMK A01 T02330179  RH  071%=      5-min Rain = 0
KFR1 280353Z 16014G19KT 23/18 A2966 RMK A01 T02330179  RH  072%=      5-min Rain = 0
KFR1 280354Z 16016G24KT 23/18 A2965 RMK A01 T02320179  RH  072%=      5-min Rain = 0
KFR1 280355Z 16015G21KT 23/18 A2966 RMK A01 T02320179  RH  072%=      5-min Rain = 0
KFR1 280356Z 16020KT 23/18 A2965 RMK A01 T02320179  RH  072%=      5-min Rain = 0
KFR1 280357Z 16019G25KT 23/18 A2966 RMK A01 T02320179  RH  072%=      5-min Rain = 0
KFR1 280358Z 16019G25KT 23/18 A2966 RMK A01 T02320178  RH  072%=      5-min Rain = 0
KFR1 280359Z 16021G27KT 23/18 A2966 RMK A01 T02320179  RH  072%=      5-min Rain = 0
KFR1 280400Z 16018G27KT 23/18 A2966 RMK A01 T02320179  RH  072%=      5-min Rain = 0
KFR1 280401Z 16017G22KT 23/18 A2965 RMK A01 T02320179  RH  072%=      5-min Rain = 0
KFR1 280402Z 16018KT 23/18 A2966 RMK A01 T02320179  RH  072%=      5-min Rain = 0
KFR1 280403Z 16016KT 23/18 A2966 RMK A01 T02320179  RH  072%=      5-min Rain = 0
KFR1 280404Z 16018KT 23/18 A2966 RMK A01 T02310180  RH  073%=      5-min Rain = 0
KFR1 280405Z 17017G25KT 23/18 A2966 RMK A01 T02310179  RH  073%=      5-min Rain = 0
KFR1 280406Z 16018G23KT 23/18 A2966 RMK A01 T02310180  RH  073%=      5-min Rain = 0
KFR1 280407Z 17016G21KT 23/18 A2966 RMK A01 T02310179  RH  073%=      5-min Rain = 0
KFR1 280408Z 17017KT 23/18 A2966 RMK A01 T02310179  RH  073%=      5-min Rain = 0
KFR1 280409Z 16013KT 23/18 A2966 RMK A01 T02310180  RH  073%=      5-min Rain = 0
KFR1 280410Z 16018G23KT 23/18 A2966 RMK A01 T02300180  RH  073%=      5-min Rain = 0
KFR1 280411Z 16017G23KT 23/18 A2966 RMK A01 T02300180  RH  073%=      5-min Rain = 0
KFR1 280412Z 17015G20KT 23/18 A2966 RMK A01 T02300180  RH  074%=      5-min Rain = 0
KFR1 280413Z 16016KT 23/18 A2966 RMK A01 T02300180  RH  074%=      5-min Rain = 0
KFR1 280414Z 16016G22KT 23/18 A2966 RMK A01 T02300180  RH  074%=      5-min Rain = 0
KFR1 280415Z 16014G19KT 23/18 A2966 RMK A01 T02300180  RH  074%=      5-min Rain = 0
KFR1 280416Z 17011G17KT 23/18 A2966 RMK A01 T02300181  RH  074%=      5-min Rain = 0
KFR1 280417Z 17014G20KT 23/18 A2966 RMK A01 T02290181  RH  074%=      5-min Rain = 0
KFR1 280418Z 17015KT 23/18 A2966 RMK A01 T02290181  RH  074%=      5-min Rain = 0
KFR1 280419Z 17012G17KT 23/18 A2966 RMK A01 T02290181  RH  074%=      5-min Rain = 0
KFR1 280420Z 17015KT 23/18 A2966 RMK A01 T02290181  RH  074%=      5-min Rain = 0
KFR1 280421Z 17016G21KT 23/18 A2966 RMK A01 T02290182  RH  074%=      5-min Rain = 0
KFR1 280422Z 17018KT 23/18 A2966 RMK A01 T02290181  RH  074%=      5-min Rain = 0
KFR1 280423Z 16016G23KT 23/18 A2966 RMK A01 T02290181  RH  074%=      5-min Rain = 0
KFR1 280424Z 17015KT 23/18 A2966 RMK A01 T02290181  RH  074%=      5-min Rain = 0
KFR1 280425Z 16012G18KT 23/18 A2966 RMK A01 T02290181  RH  074%=      5-min Rain = 0
KFR1 280426Z 16015G21KT 23/18 A2966 RMK A01 T02290182  RH  075%=      5-min Rain = 0
KFR1 280427Z 17017KT 23/18 A2966 RMK A01 T02290182  RH  075%=      5-min Rain = 0
KFR1 280428Z 17015KT 23/18 A2966 RMK A01 T02290182  RH  075%=      5-min Rain = 0
KFR1 280429Z 16016G21KT 23/18 A2966 RMK A01 T02280182  RH  075%=      5-min Rain = 0
KFR1 280430Z 17017KT 23/18 A2966 RMK A01 T02280182  RH  075%=      5-min Rain = 0
KFR1 280431Z 17018G24KT 23/18 A2966 RMK A01 T02280182  RH  075%=      5-min Rain = 0
KFR1 280432Z 17016G22KT 23/18 A2966 RMK A01 T02280182  RH  075%=      5-min Rain = 0
KFR1 280433Z 17018G24KT 23/18 A2966 RMK A01 T02280182  RH  075%=      5-min Rain = 0
KFR1 280434Z 17017KT 23/18 A2966 RMK A01 T02280182  RH  075%=      5-min Rain = 0
KFR1 280435Z 17016KT 23/18 A2966 RMK A01 T02280183  RH  075%=      5-min Rain = 0
KFR1 280436Z 16018G24KT 23/18 A2966 RMK A01 T02280183  RH  075%=      5-min Rain = 0
KFR1 280437Z 17018KT 23/18 A2966 RMK A01 T02290183  RH  075%=      5-min Rain = 0
KFR1 280438Z 16018KT 23/18 A2966 RMK A01 T02290183  RH  075%=      5-min Rain = 0
KFR1 280439Z 17018G26KT 23/18 A2966 RMK A01 T02290183  RH  075%=      5-min Rain = 0
KFR1 280440Z 17018KT 23/18 A2966 RMK A01 T02290183  RH  075%=      5-min Rain = 0
KFR1 280441Z 17016G22KT 23/18 A2966 RMK A01 T02290183  RH  075%=      5-min Rain = 0
KFR1 280442Z 17018KT 23/18 A2966 RMK A01 T02290183  RH  076%=      5-min Rain = 0
KFR1 280443Z 17019KT 23/18 A2966 RMK A01 T02290184  RH  076%=      5-min Rain = 0
KFR1 280444Z 17016G24KT 23/18 A2966 RMK A01 T02290184  RH  076%=      5-min Rain = 0
KFR1 280445Z 17015G23KT 23/18 A2966 RMK A01 T02290184  RH  076%=      5-min Rain = 0
KFR1 280446Z 17015KT 23/18 A2966 RMK A01 T02290184  RH  076%=      5-min Rain = 0
KFR1 280447Z 17019KT 23/18 A2966 RMK A01 T02280184  RH  076%=      5-min Rain = 0
KFR1 280448Z 16017KT 23/18 A2965 RMK A01 T02280184  RH  076%=      5-min Rain = 0
KFR1 280449Z 17017G25KT 23/18 A2965 RMK A01 T02280184  RH  076%=      5-min Rain = 0
KFR1 280450Z 16017G23KT 23/18 A2965 RMK A01 T02280184  RH  076%=      5-min Rain = 0
KFR1 280451Z 16020G26KT 23/18 A2965 RMK A01 T02280184  RH  076%=      5-min Rain = 0
KFR1 280452Z 17016G23KT 23/18 A2965 RMK A01 T02290184  RH  076%=      5-min Rain = 0
KFR1 280453Z 16017G22KT 23/19 A2965 RMK A01 T02280185  RH  076%=      5-min Rain = 0
KFR1 280454Z 16016G23KT 23/19 A2965 RMK A01 T02280185  RH  077%=      5-min Rain = 0
KFR1 280455Z 17017G22KT 23/19 A2965 RMK A01 T02280185  RH  077%=      5-min Rain = 0
KFR1 280456Z 16017KT 23/19 A2965 RMK A01 T02280185  RH  077%=      5-min Rain = 0
KFR1 280457Z 16018G25KT 23/19 A2965 RMK A01 T02280185  RH  077%=      5-min Rain = 0
KFR1 280458Z 16018KT 23/19 A2965 RMK A01 T02280185  RH  077%=      5-min Rain = 0
KFR1 280459Z 16018G24KT 23/19 A2965 RMK A01 T02280185  RH  077%=      5-min Rain = 0

Page generated in 0.0816 seconds.